<?xml version="1.0" encoding="UTF-8" standalone="no" ?>
<gpx xmlns="http://www.topografix.com/GPX/1/1" xmlns:xsi="http://www.w3.org/2001/XMLSchema-instance" xsi:schemaLocation="http://www.topografix.com/GPX/1/1 http://www.topografix.com/GPX/1/1/gpx.xsd" version="1.1" creator="VisuGPX - https://www.visugpx.com">
  <metadata>
    <name>Rando aux portes de Paris - Ville d'Avray - St Cloud</name>
    <desc><![CDATA[Belle randonnée hivernale aux étangs de Ville d'Avray - Forêt de Fausses Reposes et boucle finale par le parc de St Cloud  ((20 km) - quelques beaux dénivelés
Détails à retrouver aussi sur [url]http://trekkingzone.com[/url]]]></desc>
  </metadata>
  <trk>
    <name><![CDATA[15 déc. 2019 à 09:17:43]]></name>
    <cmt><![CDATA[15 déc. 2019 à 09:17:43]]></cmt>
    <trkseg>
      <trkpt lat="48.82195" lon="2.18207">
        <ele>126</ele>
        <time>2019-12-15T08:17:44Z</time>
      </trkpt>
      <trkpt lat="48.82208" lon="2.18204">
        <ele>126</ele>
        <time>2019-12-15T08:17:55Z</time>
      </trkpt>
      <trkpt lat="48.82208" lon="2.18199">
        <ele>125</ele>
        <time>2019-12-15T08:18:29Z</time>
      </trkpt>
      <trkpt lat="48.82202" lon="2.18194">
        <ele>126</ele>
        <time>2019-12-15T08:19:18Z</time>
      </trkpt>
      <trkpt lat="48.82198" lon="2.1819">
        <ele>125</ele>
        <time>2019-12-15T08:19:22Z</time>
      </trkpt>
      <trkpt lat="48.822" lon="2.18171">
        <ele>127</ele>
        <time>2019-12-15T08:19:33Z</time>
      </trkpt>
      <trkpt lat="48.822" lon="2.18164">
        <ele>128</ele>
        <time>2019-12-15T08:19:37Z</time>
      </trkpt>
      <trkpt lat="48.82201" lon="2.18157">
        <ele>128</ele>
        <time>2019-12-15T08:19:41Z</time>
      </trkpt>
      <trkpt lat="48.82209" lon="2.18122">
        <ele>133</ele>
        <time>2019-12-15T08:20:03Z</time>
      </trkpt>
      <trkpt lat="48.82208" lon="2.18115">
        <ele>134</ele>
        <time>2019-12-15T08:20:08Z</time>
      </trkpt>
      <trkpt lat="48.82211" lon="2.18108">
        <ele>135</ele>
        <time>2019-12-15T08:20:13Z</time>
      </trkpt>
      <trkpt lat="48.82213" lon="2.18086">
        <ele>138</ele>
        <time>2019-12-15T08:20:27Z</time>
      </trkpt>
      <trkpt lat="48.82217" lon="2.18074">
        <ele>140</ele>
        <time>2019-12-15T08:20:36Z</time>
      </trkpt>
      <trkpt lat="48.82218" lon="2.18063">
        <ele>142</ele>
        <time>2019-12-15T08:20:44Z</time>
      </trkpt>
      <trkpt lat="48.8222" lon="2.18048">
        <ele>143</ele>
        <time>2019-12-15T08:20:53Z</time>
      </trkpt>
      <trkpt lat="48.82222" lon="2.18033">
        <ele>145</ele>
        <time>2019-12-15T08:21:02Z</time>
      </trkpt>
      <trkpt lat="48.82224" lon="2.18026">
        <ele>145</ele>
        <time>2019-12-15T08:21:07Z</time>
      </trkpt>
      <trkpt lat="48.82246" lon="2.17996">
        <ele>150</ele>
        <time>2019-12-15T08:21:37Z</time>
      </trkpt>
      <trkpt lat="48.82254" lon="2.17977">
        <ele>152</ele>
        <time>2019-12-15T08:21:49Z</time>
      </trkpt>
      <trkpt lat="48.82265" lon="2.17959">
        <ele>154</ele>
        <time>2019-12-15T08:22:03Z</time>
      </trkpt>
      <trkpt lat="48.8227" lon="2.17947">
        <ele>154</ele>
        <time>2019-12-15T08:22:11Z</time>
      </trkpt>
      <trkpt lat="48.82274" lon="2.17943">
        <ele>155</ele>
        <time>2019-12-15T08:22:15Z</time>
      </trkpt>
      <trkpt lat="48.82278" lon="2.17936">
        <ele>155</ele>
        <time>2019-12-15T08:22:19Z</time>
      </trkpt>
      <trkpt lat="48.82282" lon="2.17932">
        <ele>154</ele>
        <time>2019-12-15T08:22:23Z</time>
      </trkpt>
      <trkpt lat="48.82304" lon="2.17911">
        <ele>157</ele>
        <time>2019-12-15T08:22:46Z</time>
      </trkpt>
      <trkpt lat="48.82311" lon="2.17899">
        <ele>157</ele>
        <time>2019-12-15T08:22:54Z</time>
      </trkpt>
      <trkpt lat="48.82314" lon="2.17894">
        <ele>157</ele>
        <time>2019-12-15T08:22:58Z</time>
      </trkpt>
      <trkpt lat="48.82324" lon="2.17886">
        <ele>158</ele>
        <time>2019-12-15T08:23:06Z</time>
      </trkpt>
      <trkpt lat="48.82331" lon="2.17878">
        <ele>157</ele>
        <time>2019-12-15T08:23:13Z</time>
      </trkpt>
      <trkpt lat="48.82335" lon="2.17874">
        <ele>158</ele>
        <time>2019-12-15T08:23:16Z</time>
      </trkpt>
      <trkpt lat="48.8234" lon="2.17868">
        <ele>157</ele>
        <time>2019-12-15T08:23:35Z</time>
      </trkpt>
      <trkpt lat="48.82345" lon="2.17865">
        <ele>158</ele>
        <time>2019-12-15T08:23:40Z</time>
      </trkpt>
      <trkpt lat="48.82358" lon="2.17857">
        <ele>159</ele>
        <time>2019-12-15T08:23:52Z</time>
      </trkpt>
      <trkpt lat="48.82362" lon="2.17851">
        <ele>159</ele>
        <time>2019-12-15T08:23:56Z</time>
      </trkpt>
      <trkpt lat="48.82365" lon="2.17846">
        <ele>159</ele>
        <time>2019-12-15T08:24:00Z</time>
      </trkpt>
      <trkpt lat="48.8237" lon="2.17842">
        <ele>159</ele>
        <time>2019-12-15T08:24:04Z</time>
      </trkpt>
      <trkpt lat="48.82388" lon="2.17827">
        <ele>160</ele>
        <time>2019-12-15T08:24:17Z</time>
      </trkpt>
      <trkpt lat="48.82402" lon="2.17818">
        <ele>160</ele>
        <time>2019-12-15T08:24:27Z</time>
      </trkpt>
      <trkpt lat="48.82411" lon="2.17803">
        <ele>160</ele>
        <time>2019-12-15T08:24:36Z</time>
      </trkpt>
      <trkpt lat="48.82413" lon="2.17797">
        <ele>160</ele>
        <time>2019-12-15T08:24:40Z</time>
      </trkpt>
      <trkpt lat="48.82435" lon="2.17777">
        <ele>161</ele>
        <time>2019-12-15T08:25:02Z</time>
      </trkpt>
      <trkpt lat="48.82449" lon="2.17769">
        <ele>161</ele>
        <time>2019-12-15T08:25:15Z</time>
      </trkpt>
      <trkpt lat="48.82453" lon="2.17764">
        <ele>161</ele>
        <time>2019-12-15T08:25:19Z</time>
      </trkpt>
      <trkpt lat="48.82474" lon="2.1774">
        <ele>161</ele>
        <time>2019-12-15T08:25:37Z</time>
      </trkpt>
      <trkpt lat="48.82479" lon="2.17739">
        <ele>162</ele>
        <time>2019-12-15T08:26:34Z</time>
      </trkpt>
      <trkpt lat="48.82478" lon="2.17732">
        <ele>161</ele>
        <time>2019-12-15T08:26:39Z</time>
      </trkpt>
      <trkpt lat="48.82476" lon="2.17725">
        <ele>161</ele>
        <time>2019-12-15T08:26:43Z</time>
      </trkpt>
      <trkpt lat="48.82469" lon="2.17672">
        <ele>162</ele>
        <time>2019-12-15T08:27:05Z</time>
      </trkpt>
      <trkpt lat="48.82467" lon="2.17666">
        <ele>161</ele>
        <time>2019-12-15T08:27:08Z</time>
      </trkpt>
      <trkpt lat="48.82466" lon="2.17651">
        <ele>162</ele>
        <time>2019-12-15T08:27:16Z</time>
      </trkpt>
      <trkpt lat="48.82461" lon="2.17628">
        <ele>162</ele>
        <time>2019-12-15T08:27:27Z</time>
      </trkpt>
      <trkpt lat="48.82454" lon="2.17572">
        <ele>161</ele>
        <time>2019-12-15T08:27:54Z</time>
      </trkpt>
      <trkpt lat="48.82452" lon="2.17565">
        <ele>161</ele>
        <time>2019-12-15T08:27:57Z</time>
      </trkpt>
      <trkpt lat="48.82452" lon="2.17556">
        <ele>161</ele>
        <time>2019-12-15T08:28:01Z</time>
      </trkpt>
      <trkpt lat="48.82446" lon="2.17515">
        <ele>161</ele>
        <time>2019-12-15T08:28:21Z</time>
      </trkpt>
      <trkpt lat="48.82447" lon="2.17507">
        <ele>161</ele>
        <time>2019-12-15T08:28:26Z</time>
      </trkpt>
      <trkpt lat="48.82443" lon="2.17484">
        <ele>161</ele>
        <time>2019-12-15T08:28:37Z</time>
      </trkpt>
      <trkpt lat="48.8244" lon="2.17469">
        <ele>161</ele>
        <time>2019-12-15T08:28:44Z</time>
      </trkpt>
      <trkpt lat="48.82441" lon="2.17462">
        <ele>161</ele>
        <time>2019-12-15T08:28:47Z</time>
      </trkpt>
      <trkpt lat="48.82434" lon="2.17406">
        <ele>163</ele>
        <time>2019-12-15T08:29:14Z</time>
      </trkpt>
      <trkpt lat="48.82423" lon="2.17353">
        <ele>164</ele>
        <time>2019-12-15T08:29:39Z</time>
      </trkpt>
      <trkpt lat="48.82422" lon="2.17336">
        <ele>165</ele>
        <time>2019-12-15T08:29:47Z</time>
      </trkpt>
      <trkpt lat="48.82417" lon="2.17304">
        <ele>166</ele>
        <time>2019-12-15T08:30:04Z</time>
      </trkpt>
      <trkpt lat="48.82412" lon="2.17246">
        <ele>167</ele>
        <time>2019-12-15T08:30:33Z</time>
      </trkpt>
      <trkpt lat="48.82409" lon="2.17231">
        <ele>167</ele>
        <time>2019-12-15T08:30:40Z</time>
      </trkpt>
      <trkpt lat="48.82408" lon="2.17223">
        <ele>167</ele>
        <time>2019-12-15T08:30:44Z</time>
      </trkpt>
      <trkpt lat="48.82405" lon="2.17188">
        <ele>167</ele>
        <time>2019-12-15T08:30:59Z</time>
      </trkpt>
      <trkpt lat="48.82403" lon="2.17181">
        <ele>168</ele>
        <time>2019-12-15T08:31:03Z</time>
      </trkpt>
      <trkpt lat="48.82399" lon="2.17174">
        <ele>168</ele>
        <time>2019-12-15T08:31:08Z</time>
      </trkpt>
      <trkpt lat="48.82399" lon="2.17167">
        <ele>168</ele>
        <time>2019-12-15T08:31:11Z</time>
      </trkpt>
      <trkpt lat="48.82401" lon="2.1715">
        <ele>168</ele>
        <time>2019-12-15T08:31:19Z</time>
      </trkpt>
      <trkpt lat="48.82402" lon="2.17143">
        <ele>168</ele>
        <time>2019-12-15T08:31:23Z</time>
      </trkpt>
      <trkpt lat="48.82401" lon="2.17135">
        <ele>168</ele>
        <time>2019-12-15T08:31:27Z</time>
      </trkpt>
      <trkpt lat="48.82401" lon="2.17127">
        <ele>168</ele>
        <time>2019-12-15T08:31:31Z</time>
      </trkpt>
      <trkpt lat="48.82405" lon="2.17112">
        <ele>168</ele>
        <time>2019-12-15T08:31:39Z</time>
      </trkpt>
      <trkpt lat="48.82407" lon="2.17104">
        <ele>168</ele>
        <time>2019-12-15T08:31:43Z</time>
      </trkpt>
      <trkpt lat="48.82411" lon="2.1709">
        <ele>169</ele>
        <time>2019-12-15T08:31:50Z</time>
      </trkpt>
      <trkpt lat="48.82436" lon="2.17041">
        <ele>170</ele>
        <time>2019-12-15T08:32:20Z</time>
      </trkpt>
      <trkpt lat="48.82459" lon="2.16993">
        <ele>170</ele>
        <time>2019-12-15T08:32:48Z</time>
      </trkpt>
      <trkpt lat="48.82465" lon="2.1697">
        <ele>171</ele>
        <time>2019-12-15T08:32:58Z</time>
      </trkpt>
      <trkpt lat="48.82471" lon="2.16957">
        <ele>171</ele>
        <time>2019-12-15T08:33:05Z</time>
      </trkpt>
      <trkpt lat="48.82478" lon="2.16947">
        <ele>171</ele>
        <time>2019-12-15T08:33:12Z</time>
      </trkpt>
      <trkpt lat="48.82482" lon="2.16943">
        <ele>172</ele>
        <time>2019-12-15T08:33:17Z</time>
      </trkpt>
      <trkpt lat="48.82483" lon="2.16936">
        <ele>172</ele>
        <time>2019-12-15T08:33:22Z</time>
      </trkpt>
      <trkpt lat="48.82487" lon="2.16927">
        <ele>173</ele>
        <time>2019-12-15T08:33:41Z</time>
      </trkpt>
      <trkpt lat="48.8249" lon="2.16918">
        <ele>173</ele>
        <time>2019-12-15T08:33:48Z</time>
      </trkpt>
      <trkpt lat="48.82494" lon="2.16914">
        <ele>172</ele>
        <time>2019-12-15T08:33:53Z</time>
      </trkpt>
      <trkpt lat="48.82501" lon="2.16902">
        <ele>172</ele>
        <time>2019-12-15T08:34:00Z</time>
      </trkpt>
      <trkpt lat="48.82507" lon="2.16882">
        <ele>173</ele>
        <time>2019-12-15T08:34:11Z</time>
      </trkpt>
      <trkpt lat="48.82516" lon="2.16874">
        <ele>173</ele>
        <time>2019-12-15T08:34:19Z</time>
      </trkpt>
      <trkpt lat="48.8253" lon="2.16842">
        <ele>173</ele>
        <time>2019-12-15T08:34:39Z</time>
      </trkpt>
      <trkpt lat="48.82534" lon="2.16837">
        <ele>173</ele>
        <time>2019-12-15T08:34:43Z</time>
      </trkpt>
      <trkpt lat="48.82539" lon="2.16823">
        <ele>173</ele>
        <time>2019-12-15T08:34:50Z</time>
      </trkpt>
      <trkpt lat="48.82544" lon="2.16818">
        <ele>173</ele>
        <time>2019-12-15T08:34:54Z</time>
      </trkpt>
      <trkpt lat="48.82547" lon="2.16811">
        <ele>174</ele>
        <time>2019-12-15T08:34:58Z</time>
      </trkpt>
      <trkpt lat="48.82549" lon="2.16804">
        <ele>174</ele>
        <time>2019-12-15T08:35:02Z</time>
      </trkpt>
      <trkpt lat="48.82557" lon="2.16791">
        <ele>174</ele>
        <time>2019-12-15T08:35:10Z</time>
      </trkpt>
      <trkpt lat="48.82562" lon="2.16777">
        <ele>174</ele>
        <time>2019-12-15T08:35:17Z</time>
      </trkpt>
      <trkpt lat="48.82576" lon="2.16745">
        <ele>174</ele>
        <time>2019-12-15T08:35:34Z</time>
      </trkpt>
      <trkpt lat="48.82581" lon="2.1674">
        <ele>174</ele>
        <time>2019-12-15T08:35:38Z</time>
      </trkpt>
      <trkpt lat="48.82593" lon="2.16716">
        <ele>174</ele>
        <time>2019-12-15T08:35:53Z</time>
      </trkpt>
      <trkpt lat="48.826" lon="2.16706">
        <ele>174</ele>
        <time>2019-12-15T08:36:01Z</time>
      </trkpt>
      <trkpt lat="48.82604" lon="2.1669">
        <ele>174</ele>
        <time>2019-12-15T08:36:09Z</time>
      </trkpt>
      <trkpt lat="48.82623" lon="2.16643">
        <ele>175</ele>
        <time>2019-12-15T08:36:33Z</time>
      </trkpt>
      <trkpt lat="48.82627" lon="2.16638">
        <ele>175</ele>
        <time>2019-12-15T08:36:37Z</time>
      </trkpt>
      <trkpt lat="48.82634" lon="2.16624">
        <ele>175</ele>
        <time>2019-12-15T08:36:45Z</time>
      </trkpt>
      <trkpt lat="48.82645" lon="2.16608">
        <ele>175</ele>
        <time>2019-12-15T08:36:58Z</time>
      </trkpt>
      <trkpt lat="48.82658" lon="2.16582">
        <ele>175</ele>
        <time>2019-12-15T08:37:14Z</time>
      </trkpt>
      <trkpt lat="48.82667" lon="2.16573">
        <ele>175</ele>
        <time>2019-12-15T08:37:22Z</time>
      </trkpt>
      <trkpt lat="48.82678" lon="2.1657">
        <ele>175</ele>
        <time>2019-12-15T08:37:30Z</time>
      </trkpt>
      <trkpt lat="48.82682" lon="2.1657">
        <ele>175</ele>
        <time>2019-12-15T08:37:33Z</time>
      </trkpt>
      <trkpt lat="48.82701" lon="2.1656">
        <ele>175</ele>
        <time>2019-12-15T08:37:47Z</time>
      </trkpt>
      <trkpt lat="48.8274" lon="2.16564">
        <ele>174</ele>
        <time>2019-12-15T08:38:14Z</time>
      </trkpt>
      <trkpt lat="48.82745" lon="2.16567">
        <ele>174</ele>
        <time>2019-12-15T08:38:18Z</time>
      </trkpt>
      <trkpt lat="48.82789" lon="2.16565">
        <ele>173</ele>
        <time>2019-12-15T08:38:49Z</time>
      </trkpt>
      <trkpt lat="48.82832" lon="2.16559">
        <ele>172</ele>
        <time>2019-12-15T08:39:19Z</time>
      </trkpt>
      <trkpt lat="48.82842" lon="2.16559">
        <ele>172</ele>
        <time>2019-12-15T08:39:26Z</time>
      </trkpt>
      <trkpt lat="48.82852" lon="2.1656">
        <ele>172</ele>
        <time>2019-12-15T08:39:33Z</time>
      </trkpt>
      <trkpt lat="48.82857" lon="2.16558">
        <ele>171</ele>
        <time>2019-12-15T08:39:37Z</time>
      </trkpt>
      <trkpt lat="48.82861" lon="2.16555">
        <ele>171</ele>
        <time>2019-12-15T08:39:41Z</time>
      </trkpt>
      <trkpt lat="48.82863" lon="2.1654">
        <ele>171</ele>
        <time>2019-12-15T08:39:48Z</time>
      </trkpt>
      <trkpt lat="48.82864" lon="2.16518">
        <ele>171</ele>
        <time>2019-12-15T08:39:58Z</time>
      </trkpt>
      <trkpt lat="48.82864" lon="2.16485">
        <ele>172</ele>
        <time>2019-12-15T08:40:13Z</time>
      </trkpt>
      <trkpt lat="48.82865" lon="2.1647">
        <ele>172</ele>
        <time>2019-12-15T08:40:21Z</time>
      </trkpt>
      <trkpt lat="48.82864" lon="2.16456">
        <ele>172</ele>
        <time>2019-12-15T08:40:28Z</time>
      </trkpt>
      <trkpt lat="48.82862" lon="2.16448">
        <ele>173</ele>
        <time>2019-12-15T08:40:32Z</time>
      </trkpt>
      <trkpt lat="48.82859" lon="2.16443">
        <ele>173</ele>
        <time>2019-12-15T08:40:35Z</time>
      </trkpt>
      <trkpt lat="48.82852" lon="2.16432">
        <ele>173</ele>
        <time>2019-12-15T08:40:42Z</time>
      </trkpt>
      <trkpt lat="48.82851" lon="2.16423">
        <ele>172</ele>
        <time>2019-12-15T08:40:53Z</time>
      </trkpt>
      <trkpt lat="48.82856" lon="2.16421">
        <ele>171</ele>
        <time>2019-12-15T08:48:07Z</time>
      </trkpt>
      <trkpt lat="48.82852" lon="2.16416">
        <ele>171</ele>
        <time>2019-12-15T08:48:54Z</time>
      </trkpt>
      <trkpt lat="48.82851" lon="2.16406">
        <ele>171</ele>
        <time>2019-12-15T08:50:46Z</time>
      </trkpt>
      <trkpt lat="48.8285" lon="2.16399">
        <ele>172</ele>
        <time>2019-12-15T08:50:51Z</time>
      </trkpt>
      <trkpt lat="48.82848" lon="2.16391">
        <ele>172</ele>
        <time>2019-12-15T08:50:55Z</time>
      </trkpt>
      <trkpt lat="48.82856" lon="2.16331">
        <ele>172</ele>
        <time>2019-12-15T08:51:25Z</time>
      </trkpt>
      <trkpt lat="48.82852" lon="2.16261">
        <ele>173</ele>
        <time>2019-12-15T08:51:59Z</time>
      </trkpt>
      <trkpt lat="48.82841" lon="2.16193">
        <ele>173</ele>
        <time>2019-12-15T08:52:32Z</time>
      </trkpt>
      <trkpt lat="48.82839" lon="2.16184">
        <ele>173</ele>
        <time>2019-12-15T08:52:36Z</time>
      </trkpt>
      <trkpt lat="48.82836" lon="2.1616">
        <ele>173</ele>
        <time>2019-12-15T08:52:48Z</time>
      </trkpt>
      <trkpt lat="48.82836" lon="2.16101">
        <ele>173</ele>
        <time>2019-12-15T08:53:20Z</time>
      </trkpt>
      <trkpt lat="48.82838" lon="2.16037">
        <ele>173</ele>
        <time>2019-12-15T08:53:52Z</time>
      </trkpt>
      <trkpt lat="48.82837" lon="2.1602">
        <ele>174</ele>
        <time>2019-12-15T08:54:00Z</time>
      </trkpt>
      <trkpt lat="48.8283" lon="2.15982">
        <ele>173</ele>
        <time>2019-12-15T08:54:17Z</time>
      </trkpt>
      <trkpt lat="48.82805" lon="2.15921">
        <ele>174</ele>
        <time>2019-12-15T08:54:49Z</time>
      </trkpt>
      <trkpt lat="48.82795" lon="2.15901">
        <ele>173</ele>
        <time>2019-12-15T08:55:01Z</time>
      </trkpt>
      <trkpt lat="48.82774" lon="2.15867">
        <ele>174</ele>
        <time>2019-12-15T08:55:23Z</time>
      </trkpt>
      <trkpt lat="48.8277" lon="2.15862">
        <ele>174</ele>
        <time>2019-12-15T08:55:27Z</time>
      </trkpt>
      <trkpt lat="48.82756" lon="2.15837">
        <ele>174</ele>
        <time>2019-12-15T08:55:42Z</time>
      </trkpt>
      <trkpt lat="48.82751" lon="2.15824">
        <ele>175</ele>
        <time>2019-12-15T08:55:50Z</time>
      </trkpt>
      <trkpt lat="48.82744" lon="2.15812">
        <ele>175</ele>
        <time>2019-12-15T08:55:57Z</time>
      </trkpt>
      <trkpt lat="48.82737" lon="2.15798">
        <ele>175</ele>
        <time>2019-12-15T08:56:05Z</time>
      </trkpt>
      <trkpt lat="48.82732" lon="2.15776">
        <ele>175</ele>
        <time>2019-12-15T08:56:17Z</time>
      </trkpt>
      <trkpt lat="48.82727" lon="2.15765">
        <ele>175</ele>
        <time>2019-12-15T08:56:24Z</time>
      </trkpt>
      <trkpt lat="48.82725" lon="2.15758">
        <ele>175</ele>
        <time>2019-12-15T08:56:28Z</time>
      </trkpt>
      <trkpt lat="48.82722" lon="2.15751">
        <ele>175</ele>
        <time>2019-12-15T08:56:32Z</time>
      </trkpt>
      <trkpt lat="48.82719" lon="2.15728">
        <ele>175</ele>
        <time>2019-12-15T08:56:44Z</time>
      </trkpt>
      <trkpt lat="48.82716" lon="2.15722">
        <ele>175</ele>
        <time>2019-12-15T08:56:47Z</time>
      </trkpt>
      <trkpt lat="48.82712" lon="2.15687">
        <ele>175</ele>
        <time>2019-12-15T08:57:03Z</time>
      </trkpt>
      <trkpt lat="48.8271" lon="2.15679">
        <ele>175</ele>
        <time>2019-12-15T08:57:07Z</time>
      </trkpt>
      <trkpt lat="48.82709" lon="2.15664">
        <ele>175</ele>
        <time>2019-12-15T08:57:14Z</time>
      </trkpt>
      <trkpt lat="48.82709" lon="2.15656">
        <ele>176</ele>
        <time>2019-12-15T08:57:18Z</time>
      </trkpt>
      <trkpt lat="48.8271" lon="2.15648">
        <ele>176</ele>
        <time>2019-12-15T08:57:22Z</time>
      </trkpt>
      <trkpt lat="48.8271" lon="2.15632">
        <ele>176</ele>
        <time>2019-12-15T08:57:30Z</time>
      </trkpt>
      <trkpt lat="48.82703" lon="2.15563">
        <ele>176</ele>
        <time>2019-12-15T08:58:02Z</time>
      </trkpt>
      <trkpt lat="48.82705" lon="2.15556">
        <ele>176</ele>
        <time>2019-12-15T08:58:07Z</time>
      </trkpt>
      <trkpt lat="48.82704" lon="2.15546">
        <ele>176</ele>
        <time>2019-12-15T08:58:13Z</time>
      </trkpt>
      <trkpt lat="48.827" lon="2.15532">
        <ele>176</ele>
        <time>2019-12-15T08:58:20Z</time>
      </trkpt>
      <trkpt lat="48.82691" lon="2.1547">
        <ele>176</ele>
        <time>2019-12-15T08:58:52Z</time>
      </trkpt>
      <trkpt lat="48.82689" lon="2.15463">
        <ele>176</ele>
        <time>2019-12-15T08:58:56Z</time>
      </trkpt>
      <trkpt lat="48.82677" lon="2.15427">
        <ele>176</ele>
        <time>2019-12-15T08:59:16Z</time>
      </trkpt>
      <trkpt lat="48.82674" lon="2.15419">
        <ele>177</ele>
        <time>2019-12-15T08:59:20Z</time>
      </trkpt>
      <trkpt lat="48.82669" lon="2.15404">
        <ele>176</ele>
        <time>2019-12-15T08:59:28Z</time>
      </trkpt>
      <trkpt lat="48.82665" lon="2.154">
        <ele>176</ele>
        <time>2019-12-15T08:59:32Z</time>
      </trkpt>
      <trkpt lat="48.82659" lon="2.15386">
        <ele>176</ele>
        <time>2019-12-15T08:59:40Z</time>
      </trkpt>
      <trkpt lat="48.82655" lon="2.1538">
        <ele>177</ele>
        <time>2019-12-15T08:59:44Z</time>
      </trkpt>
      <trkpt lat="48.82638" lon="2.15366">
        <ele>177</ele>
        <time>2019-12-15T09:00:00Z</time>
      </trkpt>
      <trkpt lat="48.82616" lon="2.15341">
        <ele>177</ele>
        <time>2019-12-15T09:00:21Z</time>
      </trkpt>
      <trkpt lat="48.82613" lon="2.15334">
        <ele>177</ele>
        <time>2019-12-15T09:00:25Z</time>
      </trkpt>
      <trkpt lat="48.8261" lon="2.15327">
        <ele>177</ele>
        <time>2019-12-15T09:00:29Z</time>
      </trkpt>
      <trkpt lat="48.82604" lon="2.15316">
        <ele>177</ele>
        <time>2019-12-15T09:00:37Z</time>
      </trkpt>
      <trkpt lat="48.82598" lon="2.15294">
        <ele>176</ele>
        <time>2019-12-15T09:00:49Z</time>
      </trkpt>
      <trkpt lat="48.82596" lon="2.15286">
        <ele>177</ele>
        <time>2019-12-15T09:00:53Z</time>
      </trkpt>
      <trkpt lat="48.82582" lon="2.15244">
        <ele>176</ele>
        <time>2019-12-15T09:01:17Z</time>
      </trkpt>
      <trkpt lat="48.82574" lon="2.15231">
        <ele>176</ele>
        <time>2019-12-15T09:01:25Z</time>
      </trkpt>
      <trkpt lat="48.82571" lon="2.15225">
        <ele>176</ele>
        <time>2019-12-15T09:01:29Z</time>
      </trkpt>
      <trkpt lat="48.82567" lon="2.15221">
        <ele>176</ele>
        <time>2019-12-15T09:01:33Z</time>
      </trkpt>
      <trkpt lat="48.82552" lon="2.15212">
        <ele>176</ele>
        <time>2019-12-15T09:01:44Z</time>
      </trkpt>
      <trkpt lat="48.82548" lon="2.15207">
        <ele>176</ele>
        <time>2019-12-15T09:01:48Z</time>
      </trkpt>
      <trkpt lat="48.82544" lon="2.15206">
        <ele>177</ele>
        <time>2019-12-15T09:02:04Z</time>
      </trkpt>
      <trkpt lat="48.8254" lon="2.15201">
        <ele>176</ele>
        <time>2019-12-15T09:02:22Z</time>
      </trkpt>
      <trkpt lat="48.82536" lon="2.15196">
        <ele>176</ele>
        <time>2019-12-15T09:02:28Z</time>
      </trkpt>
      <trkpt lat="48.82536" lon="2.15187">
        <ele>176</ele>
        <time>2019-12-15T09:02:56Z</time>
      </trkpt>
      <trkpt lat="48.82538" lon="2.1518">
        <ele>176</ele>
        <time>2019-12-15T09:02:59Z</time>
      </trkpt>
      <trkpt lat="48.82538" lon="2.15172">
        <ele>176</ele>
        <time>2019-12-15T09:03:03Z</time>
      </trkpt>
      <trkpt lat="48.8254" lon="2.1515">
        <ele>173</ele>
        <time>2019-12-15T09:03:13Z</time>
      </trkpt>
      <trkpt lat="48.82543" lon="2.15142">
        <ele>173</ele>
        <time>2019-12-15T09:03:20Z</time>
      </trkpt>
      <trkpt lat="48.82543" lon="2.15134">
        <ele>173</ele>
        <time>2019-12-15T09:03:24Z</time>
      </trkpt>
      <trkpt lat="48.82544" lon="2.15118">
        <ele>173</ele>
        <time>2019-12-15T09:03:31Z</time>
      </trkpt>
      <trkpt lat="48.82544" lon="2.15109">
        <ele>173</ele>
        <time>2019-12-15T09:03:35Z</time>
      </trkpt>
      <trkpt lat="48.82537" lon="2.15072">
        <ele>175</ele>
        <time>2019-12-15T09:03:51Z</time>
      </trkpt>
      <trkpt lat="48.82537" lon="2.15063">
        <ele>175</ele>
        <time>2019-12-15T09:03:55Z</time>
      </trkpt>
      <trkpt lat="48.82536" lon="2.15056">
        <ele>175</ele>
        <time>2019-12-15T09:03:59Z</time>
      </trkpt>
      <trkpt lat="48.82529" lon="2.15026">
        <ele>175</ele>
        <time>2019-12-15T09:04:14Z</time>
      </trkpt>
      <trkpt lat="48.82527" lon="2.1502">
        <ele>175</ele>
        <time>2019-12-15T09:04:18Z</time>
      </trkpt>
      <trkpt lat="48.82518" lon="2.14991">
        <ele>175</ele>
        <time>2019-12-15T09:04:34Z</time>
      </trkpt>
      <trkpt lat="48.82515" lon="2.14984">
        <ele>176</ele>
        <time>2019-12-15T09:04:38Z</time>
      </trkpt>
      <trkpt lat="48.82513" lon="2.14976">
        <ele>175</ele>
        <time>2019-12-15T09:04:42Z</time>
      </trkpt>
      <trkpt lat="48.82512" lon="2.14961">
        <ele>174</ele>
        <time>2019-12-15T09:04:49Z</time>
      </trkpt>
      <trkpt lat="48.82513" lon="2.14947">
        <ele>174</ele>
        <time>2019-12-15T09:04:57Z</time>
      </trkpt>
      <trkpt lat="48.82527" lon="2.14935">
        <ele>174</ele>
        <time>2019-12-15T09:06:22Z</time>
      </trkpt>
      <trkpt lat="48.82571" lon="2.14909">
        <ele>173</ele>
        <time>2019-12-15T09:06:55Z</time>
      </trkpt>
      <trkpt lat="48.8259" lon="2.14897">
        <ele>173</ele>
        <time>2019-12-15T09:07:09Z</time>
      </trkpt>
      <trkpt lat="48.82592" lon="2.14868">
        <ele>172</ele>
        <time>2019-12-15T09:07:25Z</time>
      </trkpt>
      <trkpt lat="48.82585" lon="2.14795">
        <ele>168</ele>
        <time>2019-12-15T09:07:59Z</time>
      </trkpt>
      <trkpt lat="48.82583" lon="2.1472">
        <ele>160</ele>
        <time>2019-12-15T09:08:33Z</time>
      </trkpt>
      <trkpt lat="48.8258" lon="2.14692">
        <ele>157</ele>
        <time>2019-12-15T09:08:47Z</time>
      </trkpt>
      <trkpt lat="48.8258" lon="2.147">
        <ele>155</ele>
        <time>2019-12-15T09:10:00Z</time>
      </trkpt>
      <trkpt lat="48.82586" lon="2.14726">
        <ele>158</ele>
        <time>2019-12-15T09:10:14Z</time>
      </trkpt>
      <trkpt lat="48.82592" lon="2.14783">
        <ele>166</ele>
        <time>2019-12-15T09:10:49Z</time>
      </trkpt>
      <trkpt lat="48.82589" lon="2.14797">
        <ele>167</ele>
        <time>2019-12-15T09:10:58Z</time>
      </trkpt>
      <trkpt lat="48.8258" lon="2.1479">
        <ele>168</ele>
        <time>2019-12-15T09:11:07Z</time>
      </trkpt>
      <trkpt lat="48.82571" lon="2.14786">
        <ele>168</ele>
        <time>2019-12-15T09:11:13Z</time>
      </trkpt>
      <trkpt lat="48.8254" lon="2.14764">
        <ele>167</ele>
        <time>2019-12-15T09:11:40Z</time>
      </trkpt>
      <trkpt lat="48.8252" lon="2.1476">
        <ele>166</ele>
        <time>2019-12-15T09:11:56Z</time>
      </trkpt>
      <trkpt lat="48.82491" lon="2.14768">
        <ele>166</ele>
        <time>2019-12-15T09:12:15Z</time>
      </trkpt>
      <trkpt lat="48.82448" lon="2.14805">
        <ele>166</ele>
        <time>2019-12-15T09:12:52Z</time>
      </trkpt>
      <trkpt lat="48.82422" lon="2.14822">
        <ele>166</ele>
        <time>2019-12-15T09:13:10Z</time>
      </trkpt>
      <trkpt lat="48.82415" lon="2.14831">
        <ele>166</ele>
        <time>2019-12-15T09:13:17Z</time>
      </trkpt>
      <trkpt lat="48.82393" lon="2.14862">
        <ele>165</ele>
        <time>2019-12-15T09:13:36Z</time>
      </trkpt>
      <trkpt lat="48.82371" lon="2.1489">
        <ele>163</ele>
        <time>2019-12-15T09:13:59Z</time>
      </trkpt>
      <trkpt lat="48.82355" lon="2.14905">
        <ele>163</ele>
        <time>2019-12-15T09:14:11Z</time>
      </trkpt>
      <trkpt lat="48.8235" lon="2.14917">
        <ele>164</ele>
        <time>2019-12-15T09:14:43Z</time>
      </trkpt>
      <trkpt lat="48.82315" lon="2.14944">
        <ele>162</ele>
        <time>2019-12-15T09:15:13Z</time>
      </trkpt>
      <trkpt lat="48.82306" lon="2.1495">
        <ele>161</ele>
        <time>2019-12-15T09:15:18Z</time>
      </trkpt>
      <trkpt lat="48.82301" lon="2.14958">
        <ele>160</ele>
        <time>2019-12-15T09:15:26Z</time>
      </trkpt>
      <trkpt lat="48.82267" lon="2.14963">
        <ele>154</ele>
        <time>2019-12-15T09:15:59Z</time>
      </trkpt>
      <trkpt lat="48.82259" lon="2.14968">
        <ele>152</ele>
        <time>2019-12-15T09:16:06Z</time>
      </trkpt>
      <trkpt lat="48.8224" lon="2.1497">
        <ele>150</ele>
        <time>2019-12-15T09:16:20Z</time>
      </trkpt>
      <trkpt lat="48.82214" lon="2.14971">
        <ele>149</ele>
        <time>2019-12-15T09:16:42Z</time>
      </trkpt>
      <trkpt lat="48.82186" lon="2.14975">
        <ele>147</ele>
        <time>2019-12-15T09:17:04Z</time>
      </trkpt>
      <trkpt lat="48.82139" lon="2.14981">
        <ele>148</ele>
        <time>2019-12-15T09:17:37Z</time>
      </trkpt>
      <trkpt lat="48.82129" lon="2.14978">
        <ele>149</ele>
        <time>2019-12-15T09:17:46Z</time>
      </trkpt>
      <trkpt lat="48.82122" lon="2.14967">
        <ele>149</ele>
        <time>2019-12-15T09:17:52Z</time>
      </trkpt>
      <trkpt lat="48.82098" lon="2.14921">
        <ele>147</ele>
        <time>2019-12-15T09:18:21Z</time>
      </trkpt>
      <trkpt lat="48.82072" lon="2.14877">
        <ele>146</ele>
        <time>2019-12-15T09:18:50Z</time>
      </trkpt>
      <trkpt lat="48.82067" lon="2.14865">
        <ele>146</ele>
        <time>2019-12-15T09:18:57Z</time>
      </trkpt>
      <trkpt lat="48.82059" lon="2.14855">
        <ele>146</ele>
        <time>2019-12-15T09:19:06Z</time>
      </trkpt>
      <trkpt lat="48.82046" lon="2.14833">
        <ele>146</ele>
        <time>2019-12-15T09:19:22Z</time>
      </trkpt>
      <trkpt lat="48.82023" lon="2.14784">
        <ele>148</ele>
        <time>2019-12-15T09:19:55Z</time>
      </trkpt>
      <trkpt lat="48.82008" lon="2.14759">
        <ele>148</ele>
        <time>2019-12-15T09:20:17Z</time>
      </trkpt>
      <trkpt lat="48.81979" lon="2.14701">
        <ele>148</ele>
        <time>2019-12-15T09:20:53Z</time>
      </trkpt>
      <trkpt lat="48.81972" lon="2.14691">
        <ele>149</ele>
        <time>2019-12-15T09:21:01Z</time>
      </trkpt>
      <trkpt lat="48.81963" lon="2.14695">
        <ele>150</ele>
        <time>2019-12-15T09:21:17Z</time>
      </trkpt>
      <trkpt lat="48.81961" lon="2.14709">
        <ele>152</ele>
        <time>2019-12-15T09:21:25Z</time>
      </trkpt>
      <trkpt lat="48.81961" lon="2.14753">
        <ele>155</ele>
        <time>2019-12-15T09:21:50Z</time>
      </trkpt>
      <trkpt lat="48.81956" lon="2.14782">
        <ele>158</ele>
        <time>2019-12-15T09:22:08Z</time>
      </trkpt>
      <trkpt lat="48.81954" lon="2.14806">
        <ele>160</ele>
        <time>2019-12-15T09:22:33Z</time>
      </trkpt>
      <trkpt lat="48.81948" lon="2.14817">
        <ele>162</ele>
        <time>2019-12-15T09:22:42Z</time>
      </trkpt>
      <trkpt lat="48.81944" lon="2.14837">
        <ele>165</ele>
        <time>2019-12-15T09:22:55Z</time>
      </trkpt>
      <trkpt lat="48.81944" lon="2.1485">
        <ele>166</ele>
        <time>2019-12-15T09:23:04Z</time>
      </trkpt>
      <trkpt lat="48.81935" lon="2.14893">
        <ele>170</ele>
        <time>2019-12-15T09:23:26Z</time>
      </trkpt>
      <trkpt lat="48.81935" lon="2.14907">
        <ele>171</ele>
        <time>2019-12-15T09:23:33Z</time>
      </trkpt>
      <trkpt lat="48.81938" lon="2.14921">
        <ele>172</ele>
        <time>2019-12-15T09:23:40Z</time>
      </trkpt>
      <trkpt lat="48.81939" lon="2.14934">
        <ele>172</ele>
        <time>2019-12-15T09:23:46Z</time>
      </trkpt>
      <trkpt lat="48.81934" lon="2.14945">
        <ele>173</ele>
        <time>2019-12-15T09:23:54Z</time>
      </trkpt>
      <trkpt lat="48.81932" lon="2.14961">
        <ele>174</ele>
        <time>2019-12-15T09:24:01Z</time>
      </trkpt>
      <trkpt lat="48.81925" lon="2.14982">
        <ele>174</ele>
        <time>2019-12-15T09:24:12Z</time>
      </trkpt>
      <trkpt lat="48.81922" lon="2.14994">
        <ele>174</ele>
        <time>2019-12-15T09:24:20Z</time>
      </trkpt>
      <trkpt lat="48.81912" lon="2.14996">
        <ele>174</ele>
        <time>2019-12-15T09:24:27Z</time>
      </trkpt>
      <trkpt lat="48.81901" lon="2.14995">
        <ele>174</ele>
        <time>2019-12-15T09:24:36Z</time>
      </trkpt>
      <trkpt lat="48.81892" lon="2.15001">
        <ele>175</ele>
        <time>2019-12-15T09:24:43Z</time>
      </trkpt>
      <trkpt lat="48.81886" lon="2.15012">
        <ele>175</ele>
        <time>2019-12-15T09:24:50Z</time>
      </trkpt>
      <trkpt lat="48.81881" lon="2.15024">
        <ele>175</ele>
        <time>2019-12-15T09:24:58Z</time>
      </trkpt>
      <trkpt lat="48.8188" lon="2.15031">
        <ele>174</ele>
        <time>2019-12-15T09:25:02Z</time>
      </trkpt>
      <trkpt lat="48.81878" lon="2.15055">
        <ele>174</ele>
        <time>2019-12-15T09:25:14Z</time>
      </trkpt>
      <trkpt lat="48.81875" lon="2.15062">
        <ele>173</ele>
        <time>2019-12-15T09:25:18Z</time>
      </trkpt>
      <trkpt lat="48.8187" lon="2.15066">
        <ele>173</ele>
        <time>2019-12-15T09:25:22Z</time>
      </trkpt>
      <trkpt lat="48.81845" lon="2.15073">
        <ele>172</ele>
        <time>2019-12-15T09:25:40Z</time>
      </trkpt>
      <trkpt lat="48.8183" lon="2.15072">
        <ele>172</ele>
        <time>2019-12-15T09:25:50Z</time>
      </trkpt>
      <trkpt lat="48.81826" lon="2.15073">
        <ele>172</ele>
        <time>2019-12-15T09:25:53Z</time>
      </trkpt>
      <trkpt lat="48.81821" lon="2.15074">
        <ele>172</ele>
        <time>2019-12-15T09:25:56Z</time>
      </trkpt>
      <trkpt lat="48.81812" lon="2.15075">
        <ele>172</ele>
        <time>2019-12-15T09:26:04Z</time>
      </trkpt>
      <trkpt lat="48.81807" lon="2.15074">
        <ele>172</ele>
        <time>2019-12-15T09:26:08Z</time>
      </trkpt>
      <trkpt lat="48.81803" lon="2.1507">
        <ele>172</ele>
        <time>2019-12-15T09:26:13Z</time>
      </trkpt>
      <trkpt lat="48.81799" lon="2.15074">
        <ele>172</ele>
        <time>2019-12-15T09:26:17Z</time>
      </trkpt>
      <trkpt lat="48.81793" lon="2.15074">
        <ele>171</ele>
        <time>2019-12-15T09:26:21Z</time>
      </trkpt>
      <trkpt lat="48.81788" lon="2.15072">
        <ele>172</ele>
        <time>2019-12-15T09:26:25Z</time>
      </trkpt>
      <trkpt lat="48.81784" lon="2.15073">
        <ele>173</ele>
        <time>2019-12-15T09:26:29Z</time>
      </trkpt>
      <trkpt lat="48.81778" lon="2.1507">
        <ele>172</ele>
        <time>2019-12-15T09:26:35Z</time>
      </trkpt>
      <trkpt lat="48.81768" lon="2.1507">
        <ele>172</ele>
        <time>2019-12-15T09:26:41Z</time>
      </trkpt>
      <trkpt lat="48.81762" lon="2.15071">
        <ele>172</ele>
        <time>2019-12-15T09:26:45Z</time>
      </trkpt>
      <trkpt lat="48.81758" lon="2.15072">
        <ele>172</ele>
        <time>2019-12-15T09:26:48Z</time>
      </trkpt>
      <trkpt lat="48.81742" lon="2.15074">
        <ele>171</ele>
        <time>2019-12-15T09:27:00Z</time>
      </trkpt>
      <trkpt lat="48.81737" lon="2.15075">
        <ele>171</ele>
        <time>2019-12-15T09:27:03Z</time>
      </trkpt>
      <trkpt lat="48.81731" lon="2.15074">
        <ele>172</ele>
        <time>2019-12-15T09:27:07Z</time>
      </trkpt>
      <trkpt lat="48.81726" lon="2.15072">
        <ele>172</ele>
        <time>2019-12-15T09:27:10Z</time>
      </trkpt>
      <trkpt lat="48.81721" lon="2.15071">
        <ele>172</ele>
        <time>2019-12-15T09:27:14Z</time>
      </trkpt>
      <trkpt lat="48.81705" lon="2.15074">
        <ele>171</ele>
        <time>2019-12-15T09:27:22Z</time>
      </trkpt>
      <trkpt lat="48.817" lon="2.15074">
        <ele>171</ele>
        <time>2019-12-15T09:27:26Z</time>
      </trkpt>
      <trkpt lat="48.81689" lon="2.15071">
        <ele>171</ele>
        <time>2019-12-15T09:27:33Z</time>
      </trkpt>
      <trkpt lat="48.81679" lon="2.15073">
        <ele>171</ele>
        <time>2019-12-15T09:27:42Z</time>
      </trkpt>
      <trkpt lat="48.81674" lon="2.15067">
        <ele>171</ele>
        <time>2019-12-15T09:27:49Z</time>
      </trkpt>
      <trkpt lat="48.81667" lon="2.15069">
        <ele>172</ele>
        <time>2019-12-15T09:27:55Z</time>
      </trkpt>
      <trkpt lat="48.81651" lon="2.15069">
        <ele>172</ele>
        <time>2019-12-15T09:28:10Z</time>
      </trkpt>
      <trkpt lat="48.81646" lon="2.15066">
        <ele>172</ele>
        <time>2019-12-15T09:28:15Z</time>
      </trkpt>
      <trkpt lat="48.81643" lon="2.15061">
        <ele>172</ele>
        <time>2019-12-15T09:28:19Z</time>
      </trkpt>
      <trkpt lat="48.81642" lon="2.15054">
        <ele>172</ele>
        <time>2019-12-15T09:28:23Z</time>
      </trkpt>
      <trkpt lat="48.81631" lon="2.15058">
        <ele>173</ele>
        <time>2019-12-15T09:28:35Z</time>
      </trkpt>
      <trkpt lat="48.81626" lon="2.15054">
        <ele>174</ele>
        <time>2019-12-15T09:29:01Z</time>
      </trkpt>
      <trkpt lat="48.81621" lon="2.15052">
        <ele>173</ele>
        <time>2019-12-15T09:29:05Z</time>
      </trkpt>
      <trkpt lat="48.81615" lon="2.15055">
        <ele>173</ele>
        <time>2019-12-15T09:29:11Z</time>
      </trkpt>
      <trkpt lat="48.81604" lon="2.15056">
        <ele>173</ele>
        <time>2019-12-15T09:29:18Z</time>
      </trkpt>
      <trkpt lat="48.81599" lon="2.15058">
        <ele>173</ele>
        <time>2019-12-15T09:29:26Z</time>
      </trkpt>
      <trkpt lat="48.81583" lon="2.15061">
        <ele>173</ele>
        <time>2019-12-15T09:29:54Z</time>
      </trkpt>
      <trkpt lat="48.81577" lon="2.15062">
        <ele>173</ele>
        <time>2019-12-15T09:30:04Z</time>
      </trkpt>
      <trkpt lat="48.81571" lon="2.15063">
        <ele>173</ele>
        <time>2019-12-15T09:30:08Z</time>
      </trkpt>
      <trkpt lat="48.81566" lon="2.15061">
        <ele>173</ele>
        <time>2019-12-15T09:30:11Z</time>
      </trkpt>
      <trkpt lat="48.81561" lon="2.15062">
        <ele>173</ele>
        <time>2019-12-15T09:30:15Z</time>
      </trkpt>
      <trkpt lat="48.8155" lon="2.15067">
        <ele>173</ele>
        <time>2019-12-15T09:30:22Z</time>
      </trkpt>
      <trkpt lat="48.81542" lon="2.15071">
        <ele>173</ele>
        <time>2019-12-15T09:30:28Z</time>
      </trkpt>
      <trkpt lat="48.81537" lon="2.15074">
        <ele>173</ele>
        <time>2019-12-15T09:30:32Z</time>
      </trkpt>
      <trkpt lat="48.81535" lon="2.15081">
        <ele>173</ele>
        <time>2019-12-15T09:30:36Z</time>
      </trkpt>
      <trkpt lat="48.81534" lon="2.15089">
        <ele>173</ele>
        <time>2019-12-15T09:30:40Z</time>
      </trkpt>
      <trkpt lat="48.81533" lon="2.15096">
        <ele>173</ele>
        <time>2019-12-15T09:30:44Z</time>
      </trkpt>
      <trkpt lat="48.81537" lon="2.15102">
        <ele>173</ele>
        <time>2019-12-15T09:30:49Z</time>
      </trkpt>
      <trkpt lat="48.81556" lon="2.15115">
        <ele>172</ele>
        <time>2019-12-15T09:31:03Z</time>
      </trkpt>
      <trkpt lat="48.81564" lon="2.15125">
        <ele>173</ele>
        <time>2019-12-15T09:31:11Z</time>
      </trkpt>
      <trkpt lat="48.81567" lon="2.15131">
        <ele>172</ele>
        <time>2019-12-15T09:31:15Z</time>
      </trkpt>
      <trkpt lat="48.81576" lon="2.15135">
        <ele>172</ele>
        <time>2019-12-15T09:31:23Z</time>
      </trkpt>
      <trkpt lat="48.81585" lon="2.15145">
        <ele>172</ele>
        <time>2019-12-15T09:31:32Z</time>
      </trkpt>
      <trkpt lat="48.81594" lon="2.1515">
        <ele>172</ele>
        <time>2019-12-15T09:31:38Z</time>
      </trkpt>
      <trkpt lat="48.81605" lon="2.15176">
        <ele>170</ele>
        <time>2019-12-15T09:31:51Z</time>
      </trkpt>
      <trkpt lat="48.81592" lon="2.15209">
        <ele>170</ele>
        <time>2019-12-15T09:32:14Z</time>
      </trkpt>
      <trkpt lat="48.81561" lon="2.15245">
        <ele>171</ele>
        <time>2019-12-15T09:32:40Z</time>
      </trkpt>
      <trkpt lat="48.81551" lon="2.15268">
        <ele>171</ele>
        <time>2019-12-15T09:32:53Z</time>
      </trkpt>
      <trkpt lat="48.81524" lon="2.15293">
        <ele>172</ele>
        <time>2019-12-15T09:33:14Z</time>
      </trkpt>
      <trkpt lat="48.81477" lon="2.15312">
        <ele>172</ele>
        <time>2019-12-15T09:33:46Z</time>
      </trkpt>
      <trkpt lat="48.81471" lon="2.15315">
        <ele>172</ele>
        <time>2019-12-15T09:33:50Z</time>
      </trkpt>
      <trkpt lat="48.81455" lon="2.15325">
        <ele>172</ele>
        <time>2019-12-15T09:34:02Z</time>
      </trkpt>
      <trkpt lat="48.8145" lon="2.15326">
        <ele>172</ele>
        <time>2019-12-15T09:34:06Z</time>
      </trkpt>
      <trkpt lat="48.81445" lon="2.15327">
        <ele>172</ele>
        <time>2019-12-15T09:34:10Z</time>
      </trkpt>
      <trkpt lat="48.8144" lon="2.15331">
        <ele>172</ele>
        <time>2019-12-15T09:34:14Z</time>
      </trkpt>
      <trkpt lat="48.81436" lon="2.15336">
        <ele>173</ele>
        <time>2019-12-15T09:34:18Z</time>
      </trkpt>
      <trkpt lat="48.81429" lon="2.15349">
        <ele>172</ele>
        <time>2019-12-15T09:34:27Z</time>
      </trkpt>
      <trkpt lat="48.81422" lon="2.15357">
        <ele>172</ele>
        <time>2019-12-15T09:34:35Z</time>
      </trkpt>
      <trkpt lat="48.81418" lon="2.15363">
        <ele>172</ele>
        <time>2019-12-15T09:34:39Z</time>
      </trkpt>
      <trkpt lat="48.81413" lon="2.15367">
        <ele>172</ele>
        <time>2019-12-15T09:34:43Z</time>
      </trkpt>
      <trkpt lat="48.81406" lon="2.15377">
        <ele>172</ele>
        <time>2019-12-15T09:34:51Z</time>
      </trkpt>
      <trkpt lat="48.81386" lon="2.15403">
        <ele>172</ele>
        <time>2019-12-15T09:35:11Z</time>
      </trkpt>
      <trkpt lat="48.81378" lon="2.1541">
        <ele>173</ele>
        <time>2019-12-15T09:35:17Z</time>
      </trkpt>
      <trkpt lat="48.81369" lon="2.1542">
        <ele>173</ele>
        <time>2019-12-15T09:35:24Z</time>
      </trkpt>
      <trkpt lat="48.81361" lon="2.1543">
        <ele>172</ele>
        <time>2019-12-15T09:35:32Z</time>
      </trkpt>
      <trkpt lat="48.81353" lon="2.15437">
        <ele>172</ele>
        <time>2019-12-15T09:35:39Z</time>
      </trkpt>
      <trkpt lat="48.81342" lon="2.15456">
        <ele>172</ele>
        <time>2019-12-15T09:35:49Z</time>
      </trkpt>
      <trkpt lat="48.81336" lon="2.15468">
        <ele>172</ele>
        <time>2019-12-15T09:35:55Z</time>
      </trkpt>
      <trkpt lat="48.81342" lon="2.15471">
        <ele>170</ele>
        <time>2019-12-15T09:36:08Z</time>
      </trkpt>
      <trkpt lat="48.81346" lon="2.15478">
        <ele>171</ele>
        <time>2019-12-15T09:36:15Z</time>
      </trkpt>
      <trkpt lat="48.81347" lon="2.15485">
        <ele>171</ele>
        <time>2019-12-15T09:36:19Z</time>
      </trkpt>
      <trkpt lat="48.8135" lon="2.15484">
        <ele>172</ele>
        <time>2019-12-15T09:37:05Z</time>
      </trkpt>
      <trkpt lat="48.81348" lon="2.15477">
        <ele>172</ele>
        <time>2019-12-15T09:37:09Z</time>
      </trkpt>
      <trkpt lat="48.81344" lon="2.15471">
        <ele>172</ele>
        <time>2019-12-15T09:37:12Z</time>
      </trkpt>
      <trkpt lat="48.8134" lon="2.15468">
        <ele>172</ele>
        <time>2019-12-15T09:37:16Z</time>
      </trkpt>
      <trkpt lat="48.81336" lon="2.15472">
        <ele>171</ele>
        <time>2019-12-15T09:37:20Z</time>
      </trkpt>
      <trkpt lat="48.81329" lon="2.15482">
        <ele>171</ele>
        <time>2019-12-15T09:37:28Z</time>
      </trkpt>
      <trkpt lat="48.81329" lon="2.15491">
        <ele>171</ele>
        <time>2019-12-15T09:37:33Z</time>
      </trkpt>
      <trkpt lat="48.81332" lon="2.15497">
        <ele>171</ele>
        <time>2019-12-15T09:37:37Z</time>
      </trkpt>
      <trkpt lat="48.81345" lon="2.15511">
        <ele>171</ele>
        <time>2019-12-15T09:37:49Z</time>
      </trkpt>
      <trkpt lat="48.81339" lon="2.15506">
        <ele>171</ele>
        <time>2019-12-15T09:38:56Z</time>
      </trkpt>
      <trkpt lat="48.81332" lon="2.15494">
        <ele>171</ele>
        <time>2019-12-15T09:39:05Z</time>
      </trkpt>
      <trkpt lat="48.81329" lon="2.15488">
        <ele>171</ele>
        <time>2019-12-15T09:39:10Z</time>
      </trkpt>
      <trkpt lat="48.81322" lon="2.15487">
        <ele>171</ele>
        <time>2019-12-15T09:39:26Z</time>
      </trkpt>
      <trkpt lat="48.81311" lon="2.15501">
        <ele>171</ele>
        <time>2019-12-15T09:39:36Z</time>
      </trkpt>
      <trkpt lat="48.81306" lon="2.15507">
        <ele>171</ele>
        <time>2019-12-15T09:39:44Z</time>
      </trkpt>
      <trkpt lat="48.81299" lon="2.15528">
        <ele>170</ele>
        <time>2019-12-15T09:39:56Z</time>
      </trkpt>
      <trkpt lat="48.81298" lon="2.15536">
        <ele>170</ele>
        <time>2019-12-15T09:40:00Z</time>
      </trkpt>
      <trkpt lat="48.81296" lon="2.15543">
        <ele>170</ele>
        <time>2019-12-15T09:40:04Z</time>
      </trkpt>
      <trkpt lat="48.81295" lon="2.15559">
        <ele>170</ele>
        <time>2019-12-15T09:40:12Z</time>
      </trkpt>
      <trkpt lat="48.81297" lon="2.15575">
        <ele>170</ele>
        <time>2019-12-15T09:40:19Z</time>
      </trkpt>
      <trkpt lat="48.81304" lon="2.15586">
        <ele>170</ele>
        <time>2019-12-15T09:40:26Z</time>
      </trkpt>
      <trkpt lat="48.81306" lon="2.15594">
        <ele>170</ele>
        <time>2019-12-15T09:40:31Z</time>
      </trkpt>
      <trkpt lat="48.81309" lon="2.15601">
        <ele>170</ele>
        <time>2019-12-15T09:40:35Z</time>
      </trkpt>
      <trkpt lat="48.81311" lon="2.15609">
        <ele>170</ele>
        <time>2019-12-15T09:40:39Z</time>
      </trkpt>
      <trkpt lat="48.81321" lon="2.15627">
        <ele>170</ele>
        <time>2019-12-15T09:40:51Z</time>
      </trkpt>
      <trkpt lat="48.81325" lon="2.1565">
        <ele>170</ele>
        <time>2019-12-15T09:41:02Z</time>
      </trkpt>
      <trkpt lat="48.81328" lon="2.15654">
        <ele>170</ele>
        <time>2019-12-15T09:41:04Z</time>
      </trkpt>
      <trkpt lat="48.81331" lon="2.15662">
        <ele>170</ele>
        <time>2019-12-15T09:41:07Z</time>
      </trkpt>
      <trkpt lat="48.81329" lon="2.1567">
        <ele>170</ele>
        <time>2019-12-15T09:41:10Z</time>
      </trkpt>
      <trkpt lat="48.81327" lon="2.15677">
        <ele>170</ele>
        <time>2019-12-15T09:41:13Z</time>
      </trkpt>
      <trkpt lat="48.81326" lon="2.15686">
        <ele>170</ele>
        <time>2019-12-15T09:41:16Z</time>
      </trkpt>
      <trkpt lat="48.81321" lon="2.15698">
        <ele>170</ele>
        <time>2019-12-15T09:41:22Z</time>
      </trkpt>
      <trkpt lat="48.8132" lon="2.15706">
        <ele>169</ele>
        <time>2019-12-15T09:41:26Z</time>
      </trkpt>
      <trkpt lat="48.81314" lon="2.1572">
        <ele>169</ele>
        <time>2019-12-15T09:41:34Z</time>
      </trkpt>
      <trkpt lat="48.81314" lon="2.15736">
        <ele>168</ele>
        <time>2019-12-15T09:41:41Z</time>
      </trkpt>
      <trkpt lat="48.81315" lon="2.15743">
        <ele>169</ele>
        <time>2019-12-15T09:41:44Z</time>
      </trkpt>
      <trkpt lat="48.81309" lon="2.15769">
        <ele>168</ele>
        <time>2019-12-15T09:41:55Z</time>
      </trkpt>
      <trkpt lat="48.81306" lon="2.15778">
        <ele>168</ele>
        <time>2019-12-15T09:42:03Z</time>
      </trkpt>
      <trkpt lat="48.81302" lon="2.15793">
        <ele>167</ele>
        <time>2019-12-15T09:42:11Z</time>
      </trkpt>
      <trkpt lat="48.813" lon="2.15799">
        <ele>167</ele>
        <time>2019-12-15T09:42:14Z</time>
      </trkpt>
      <trkpt lat="48.81297" lon="2.15804">
        <ele>168</ele>
        <time>2019-12-15T09:42:18Z</time>
      </trkpt>
      <trkpt lat="48.81298" lon="2.15814">
        <ele>168</ele>
        <time>2019-12-15T09:42:22Z</time>
      </trkpt>
      <trkpt lat="48.81297" lon="2.15821">
        <ele>168</ele>
        <time>2019-12-15T09:42:24Z</time>
      </trkpt>
      <trkpt lat="48.81293" lon="2.15826">
        <ele>168</ele>
        <time>2019-12-15T09:42:27Z</time>
      </trkpt>
      <trkpt lat="48.81289" lon="2.1583">
        <ele>167</ele>
        <time>2019-12-15T09:42:31Z</time>
      </trkpt>
      <trkpt lat="48.81284" lon="2.15835">
        <ele>167</ele>
        <time>2019-12-15T09:42:35Z</time>
      </trkpt>
      <trkpt lat="48.81278" lon="2.15846">
        <ele>167</ele>
        <time>2019-12-15T09:42:41Z</time>
      </trkpt>
      <trkpt lat="48.81273" lon="2.15846">
        <ele>168</ele>
        <time>2019-12-15T09:42:50Z</time>
      </trkpt>
      <trkpt lat="48.81273" lon="2.15854">
        <ele>168</ele>
        <time>2019-12-15T09:43:30Z</time>
      </trkpt>
      <trkpt lat="48.81254" lon="2.15866">
        <ele>166</ele>
        <time>2019-12-15T09:43:46Z</time>
      </trkpt>
      <trkpt lat="48.81251" lon="2.15871">
        <ele>165</ele>
        <time>2019-12-15T09:43:49Z</time>
      </trkpt>
      <trkpt lat="48.81238" lon="2.15896">
        <ele>163</ele>
        <time>2019-12-15T09:44:08Z</time>
      </trkpt>
      <trkpt lat="48.81222" lon="2.15917">
        <ele>161</ele>
        <time>2019-12-15T09:44:21Z</time>
      </trkpt>
      <trkpt lat="48.8122" lon="2.15927">
        <ele>160</ele>
        <time>2019-12-15T09:44:28Z</time>
      </trkpt>
      <trkpt lat="48.81215" lon="2.15939">
        <ele>158</ele>
        <time>2019-12-15T09:44:36Z</time>
      </trkpt>
      <trkpt lat="48.81211" lon="2.15945">
        <ele>157</ele>
        <time>2019-12-15T09:44:41Z</time>
      </trkpt>
      <trkpt lat="48.81207" lon="2.15961">
        <ele>155</ele>
        <time>2019-12-15T09:44:50Z</time>
      </trkpt>
      <trkpt lat="48.81201" lon="2.15976">
        <ele>152</ele>
        <time>2019-12-15T09:45:03Z</time>
      </trkpt>
      <trkpt lat="48.81198" lon="2.15989">
        <ele>149</ele>
        <time>2019-12-15T09:45:12Z</time>
      </trkpt>
      <trkpt lat="48.81185" lon="2.16019">
        <ele>143</ele>
        <time>2019-12-15T09:45:35Z</time>
      </trkpt>
      <trkpt lat="48.8118" lon="2.1603">
        <ele>144</ele>
        <time>2019-12-15T09:45:42Z</time>
      </trkpt>
      <trkpt lat="48.81185" lon="2.16042">
        <ele>145</ele>
        <time>2019-12-15T09:45:50Z</time>
      </trkpt>
      <trkpt lat="48.81176" lon="2.16068">
        <ele>148</ele>
        <time>2019-12-15T09:46:04Z</time>
      </trkpt>
      <trkpt lat="48.81178" lon="2.16081">
        <ele>148</ele>
        <time>2019-12-15T09:46:13Z</time>
      </trkpt>
      <trkpt lat="48.81188" lon="2.16106">
        <ele>150</ele>
        <time>2019-12-15T09:46:30Z</time>
      </trkpt>
      <trkpt lat="48.81187" lon="2.1612">
        <ele>151</ele>
        <time>2019-12-15T09:46:38Z</time>
      </trkpt>
      <trkpt lat="48.81187" lon="2.16134">
        <ele>151</ele>
        <time>2019-12-15T09:46:46Z</time>
      </trkpt>
      <trkpt lat="48.81189" lon="2.16149">
        <ele>153</ele>
        <time>2019-12-15T09:46:54Z</time>
      </trkpt>
      <trkpt lat="48.81186" lon="2.16164">
        <ele>154</ele>
        <time>2019-12-15T09:47:02Z</time>
      </trkpt>
      <trkpt lat="48.81167" lon="2.16205">
        <ele>158</ele>
        <time>2019-12-15T09:47:36Z</time>
      </trkpt>
      <trkpt lat="48.81149" lon="2.16231">
        <ele>161</ele>
        <time>2019-12-15T09:47:57Z</time>
      </trkpt>
      <trkpt lat="48.81144" lon="2.16243">
        <ele>162</ele>
        <time>2019-12-15T09:48:05Z</time>
      </trkpt>
      <trkpt lat="48.81133" lon="2.16262">
        <ele>164</ele>
        <time>2019-12-15T09:48:26Z</time>
      </trkpt>
      <trkpt lat="48.81125" lon="2.16277">
        <ele>162</ele>
        <time>2019-12-15T09:48:38Z</time>
      </trkpt>
      <trkpt lat="48.81112" lon="2.16304">
        <ele>158</ele>
        <time>2019-12-15T09:48:58Z</time>
      </trkpt>
      <trkpt lat="48.81108" lon="2.16308">
        <ele>158</ele>
        <time>2019-12-15T09:49:01Z</time>
      </trkpt>
      <trkpt lat="48.81101" lon="2.16319">
        <ele>158</ele>
        <time>2019-12-15T09:49:08Z</time>
      </trkpt>
      <trkpt lat="48.81097" lon="2.16324">
        <ele>157</ele>
        <time>2019-12-15T09:49:12Z</time>
      </trkpt>
      <trkpt lat="48.81089" lon="2.16336">
        <ele>155</ele>
        <time>2019-12-15T09:49:21Z</time>
      </trkpt>
      <trkpt lat="48.81086" lon="2.16346">
        <ele>153</ele>
        <time>2019-12-15T09:49:28Z</time>
      </trkpt>
      <trkpt lat="48.81082" lon="2.16351">
        <ele>152</ele>
        <time>2019-12-15T09:49:33Z</time>
      </trkpt>
      <trkpt lat="48.81077" lon="2.16365">
        <ele>150</ele>
        <time>2019-12-15T09:49:41Z</time>
      </trkpt>
      <trkpt lat="48.81055" lon="2.16394">
        <ele>146</ele>
        <time>2019-12-15T09:51:39Z</time>
      </trkpt>
      <trkpt lat="48.81049" lon="2.16407">
        <ele>145</ele>
        <time>2019-12-15T09:51:43Z</time>
      </trkpt>
      <trkpt lat="48.81044" lon="2.16418">
        <ele>144</ele>
        <time>2019-12-15T09:51:49Z</time>
      </trkpt>
      <trkpt lat="48.81042" lon="2.16432">
        <ele>144</ele>
        <time>2019-12-15T09:51:55Z</time>
      </trkpt>
      <trkpt lat="48.81041" lon="2.16438">
        <ele>145</ele>
        <time>2019-12-15T09:52:34Z</time>
      </trkpt>
      <trkpt lat="48.81042" lon="2.16446">
        <ele>145</ele>
        <time>2019-12-15T09:52:38Z</time>
      </trkpt>
      <trkpt lat="48.8104" lon="2.16457">
        <ele>146</ele>
        <time>2019-12-15T09:52:46Z</time>
      </trkpt>
      <trkpt lat="48.81041" lon="2.16464">
        <ele>146</ele>
        <time>2019-12-15T09:52:49Z</time>
      </trkpt>
      <trkpt lat="48.81045" lon="2.16469">
        <ele>146</ele>
        <time>2019-12-15T09:52:52Z</time>
      </trkpt>
      <trkpt lat="48.81046" lon="2.16477">
        <ele>147</ele>
        <time>2019-12-15T09:52:56Z</time>
      </trkpt>
      <trkpt lat="48.81046" lon="2.16494">
        <ele>147</ele>
        <time>2019-12-15T09:53:05Z</time>
      </trkpt>
      <trkpt lat="48.81047" lon="2.16509">
        <ele>148</ele>
        <time>2019-12-15T09:53:13Z</time>
      </trkpt>
      <trkpt lat="48.81063" lon="2.16554">
        <ele>151</ele>
        <time>2019-12-15T09:53:45Z</time>
      </trkpt>
      <trkpt lat="48.81097" lon="2.16608">
        <ele>154</ele>
        <time>2019-12-15T09:54:22Z</time>
      </trkpt>
      <trkpt lat="48.81103" lon="2.16619">
        <ele>155</ele>
        <time>2019-12-15T09:54:31Z</time>
      </trkpt>
      <trkpt lat="48.81115" lon="2.16644">
        <ele>154</ele>
        <time>2019-12-15T09:54:47Z</time>
      </trkpt>
      <trkpt lat="48.81125" lon="2.16669">
        <ele>155</ele>
        <time>2019-12-15T09:55:02Z</time>
      </trkpt>
      <trkpt lat="48.81128" lon="2.16683">
        <ele>156</ele>
        <time>2019-12-15T09:55:09Z</time>
      </trkpt>
      <trkpt lat="48.81129" lon="2.16698">
        <ele>156</ele>
        <time>2019-12-15T09:55:16Z</time>
      </trkpt>
      <trkpt lat="48.81124" lon="2.16757">
        <ele>160</ele>
        <time>2019-12-15T09:55:44Z</time>
      </trkpt>
      <trkpt lat="48.81117" lon="2.16784">
        <ele>162</ele>
        <time>2019-12-15T09:55:59Z</time>
      </trkpt>
      <trkpt lat="48.81116" lon="2.168">
        <ele>163</ele>
        <time>2019-12-15T09:56:07Z</time>
      </trkpt>
      <trkpt lat="48.81114" lon="2.16812">
        <ele>164</ele>
        <time>2019-12-15T09:56:16Z</time>
      </trkpt>
      <trkpt lat="48.8111" lon="2.16826">
        <ele>165</ele>
        <time>2019-12-15T09:56:25Z</time>
      </trkpt>
      <trkpt lat="48.81101" lon="2.16843">
        <ele>165</ele>
        <time>2019-12-15T09:56:39Z</time>
      </trkpt>
      <trkpt lat="48.81098" lon="2.16847">
        <ele>165</ele>
        <time>2019-12-15T09:56:44Z</time>
      </trkpt>
      <trkpt lat="48.81094" lon="2.16855">
        <ele>165</ele>
        <time>2019-12-15T09:56:48Z</time>
      </trkpt>
      <trkpt lat="48.8108" lon="2.16885">
        <ele>164</ele>
        <time>2019-12-15T09:57:07Z</time>
      </trkpt>
      <trkpt lat="48.81075" lon="2.16889">
        <ele>164</ele>
        <time>2019-12-15T09:57:10Z</time>
      </trkpt>
      <trkpt lat="48.8107" lon="2.16887">
        <ele>163</ele>
        <time>2019-12-15T09:57:15Z</time>
      </trkpt>
      <trkpt lat="48.81061" lon="2.1688">
        <ele>161</ele>
        <time>2019-12-15T09:57:22Z</time>
      </trkpt>
      <trkpt lat="48.8105" lon="2.16885">
        <ele>159</ele>
        <time>2019-12-15T09:57:30Z</time>
      </trkpt>
      <trkpt lat="48.81047" lon="2.16892">
        <ele>158</ele>
        <time>2019-12-15T09:57:34Z</time>
      </trkpt>
      <trkpt lat="48.81045" lon="2.16899">
        <ele>158</ele>
        <time>2019-12-15T09:57:37Z</time>
      </trkpt>
      <trkpt lat="48.81042" lon="2.16921">
        <ele>159</ele>
        <time>2019-12-15T09:57:48Z</time>
      </trkpt>
      <trkpt lat="48.8104" lon="2.16939">
        <ele>158</ele>
        <time>2019-12-15T09:57:57Z</time>
      </trkpt>
      <trkpt lat="48.81039" lon="2.16946">
        <ele>159</ele>
        <time>2019-12-15T09:58:00Z</time>
      </trkpt>
      <trkpt lat="48.81034" lon="2.16978">
        <ele>159</ele>
        <time>2019-12-15T09:58:16Z</time>
      </trkpt>
      <trkpt lat="48.81034" lon="2.16987">
        <ele>159</ele>
        <time>2019-12-15T09:58:20Z</time>
      </trkpt>
      <trkpt lat="48.81037" lon="2.17002">
        <ele>159</ele>
        <time>2019-12-15T09:58:29Z</time>
      </trkpt>
      <trkpt lat="48.81037" lon="2.17031">
        <ele>163</ele>
        <time>2019-12-15T09:58:46Z</time>
      </trkpt>
      <trkpt lat="48.81037" lon="2.17076">
        <ele>163</ele>
        <time>2019-12-15T09:59:09Z</time>
      </trkpt>
      <trkpt lat="48.81039" lon="2.17105">
        <ele>164</ele>
        <time>2019-12-15T09:59:24Z</time>
      </trkpt>
      <trkpt lat="48.81036" lon="2.17134">
        <ele>165</ele>
        <time>2019-12-15T09:59:39Z</time>
      </trkpt>
      <trkpt lat="48.81034" lon="2.17139">
        <ele>165</ele>
        <time>2019-12-15T09:59:42Z</time>
      </trkpt>
      <trkpt lat="48.81026" lon="2.17158">
        <ele>162</ele>
        <time>2019-12-15T09:59:55Z</time>
      </trkpt>
      <trkpt lat="48.81025" lon="2.17164">
        <ele>161</ele>
        <time>2019-12-15T10:00:32Z</time>
      </trkpt>
      <trkpt lat="48.81015" lon="2.17168">
        <ele>159</ele>
        <time>2019-12-15T10:00:41Z</time>
      </trkpt>
      <trkpt lat="48.81013" lon="2.17176">
        <ele>157</ele>
        <time>2019-12-15T10:00:45Z</time>
      </trkpt>
      <trkpt lat="48.81009" lon="2.17181">
        <ele>156</ele>
        <time>2019-12-15T10:00:48Z</time>
      </trkpt>
      <trkpt lat="48.81004" lon="2.17185">
        <ele>155</ele>
        <time>2019-12-15T10:00:52Z</time>
      </trkpt>
      <trkpt lat="48.81001" lon="2.17191">
        <ele>154</ele>
        <time>2019-12-15T10:00:57Z</time>
      </trkpt>
      <trkpt lat="48.80994" lon="2.17198">
        <ele>152</ele>
        <time>2019-12-15T10:01:06Z</time>
      </trkpt>
      <trkpt lat="48.80989" lon="2.172">
        <ele>151</ele>
        <time>2019-12-15T10:01:10Z</time>
      </trkpt>
      <trkpt lat="48.80985" lon="2.17205">
        <ele>149</ele>
        <time>2019-12-15T10:01:15Z</time>
      </trkpt>
      <trkpt lat="48.80972" lon="2.1723">
        <ele>145</ele>
        <time>2019-12-15T10:01:31Z</time>
      </trkpt>
      <trkpt lat="48.80968" lon="2.17233">
        <ele>144</ele>
        <time>2019-12-15T10:01:35Z</time>
      </trkpt>
      <trkpt lat="48.80965" lon="2.17238">
        <ele>142</ele>
        <time>2019-12-15T10:01:43Z</time>
      </trkpt>
      <trkpt lat="48.80956" lon="2.17247">
        <ele>140</ele>
        <time>2019-12-15T10:01:51Z</time>
      </trkpt>
      <trkpt lat="48.80945" lon="2.17248">
        <ele>138</ele>
        <time>2019-12-15T10:01:57Z</time>
      </trkpt>
      <trkpt lat="48.80939" lon="2.17245">
        <ele>137</ele>
        <time>2019-12-15T10:02:02Z</time>
      </trkpt>
      <trkpt lat="48.80924" lon="2.17246">
        <ele>134</ele>
        <time>2019-12-15T10:02:13Z</time>
      </trkpt>
      <trkpt lat="48.80914" lon="2.17249">
        <ele>132</ele>
        <time>2019-12-15T10:02:21Z</time>
      </trkpt>
      <trkpt lat="48.80885" lon="2.17269">
        <ele>127</ele>
        <time>2019-12-15T10:02:49Z</time>
      </trkpt>
      <trkpt lat="48.80881" lon="2.17276">
        <ele>127</ele>
        <time>2019-12-15T10:02:54Z</time>
      </trkpt>
      <trkpt lat="48.80882" lon="2.17292">
        <ele>126</ele>
        <time>2019-12-15T10:03:01Z</time>
      </trkpt>
      <trkpt lat="48.80883" lon="2.173">
        <ele>126</ele>
        <time>2019-12-15T10:03:05Z</time>
      </trkpt>
      <trkpt lat="48.80886" lon="2.17307">
        <ele>125</ele>
        <time>2019-12-15T10:03:09Z</time>
      </trkpt>
      <trkpt lat="48.80892" lon="2.17313">
        <ele>125</ele>
        <time>2019-12-15T10:03:15Z</time>
      </trkpt>
      <trkpt lat="48.80897" lon="2.17315">
        <ele>125</ele>
        <time>2019-12-15T10:03:18Z</time>
      </trkpt>
      <trkpt lat="48.80901" lon="2.1732">
        <ele>125</ele>
        <time>2019-12-15T10:03:21Z</time>
      </trkpt>
      <trkpt lat="48.8091" lon="2.17339">
        <ele>125</ele>
        <time>2019-12-15T10:03:33Z</time>
      </trkpt>
      <trkpt lat="48.80911" lon="2.17346">
        <ele>125</ele>
        <time>2019-12-15T10:03:38Z</time>
      </trkpt>
      <trkpt lat="48.80913" lon="2.17354">
        <ele>125</ele>
        <time>2019-12-15T10:03:41Z</time>
      </trkpt>
      <trkpt lat="48.80913" lon="2.17361">
        <ele>125</ele>
        <time>2019-12-15T10:03:44Z</time>
      </trkpt>
      <trkpt lat="48.80912" lon="2.1737">
        <ele>125</ele>
        <time>2019-12-15T10:03:48Z</time>
      </trkpt>
      <trkpt lat="48.80904" lon="2.17396">
        <ele>125</ele>
        <time>2019-12-15T10:04:01Z</time>
      </trkpt>
      <trkpt lat="48.80899" lon="2.17438">
        <ele>129</ele>
        <time>2019-12-15T10:04:22Z</time>
      </trkpt>
      <trkpt lat="48.80901" lon="2.17451">
        <ele>130</ele>
        <time>2019-12-15T10:04:30Z</time>
      </trkpt>
      <trkpt lat="48.80909" lon="2.17478">
        <ele>132</ele>
        <time>2019-12-15T10:04:46Z</time>
      </trkpt>
      <trkpt lat="48.80928" lon="2.17509">
        <ele>134</ele>
        <time>2019-12-15T10:05:09Z</time>
      </trkpt>
      <trkpt lat="48.8093" lon="2.17524">
        <ele>135</ele>
        <time>2019-12-15T10:05:17Z</time>
      </trkpt>
      <trkpt lat="48.80938" lon="2.17567">
        <ele>135</ele>
        <time>2019-12-15T10:05:38Z</time>
      </trkpt>
      <trkpt lat="48.80942" lon="2.17581">
        <ele>135</ele>
        <time>2019-12-15T10:05:46Z</time>
      </trkpt>
      <trkpt lat="48.80951" lon="2.17621">
        <ele>138</ele>
        <time>2019-12-15T10:06:09Z</time>
      </trkpt>
      <trkpt lat="48.80965" lon="2.17641">
        <ele>141</ele>
        <time>2019-12-15T10:06:25Z</time>
      </trkpt>
      <trkpt lat="48.80972" lon="2.1765">
        <ele>141</ele>
        <time>2019-12-15T10:06:32Z</time>
      </trkpt>
      <trkpt lat="48.80985" lon="2.17673">
        <ele>142</ele>
        <time>2019-12-15T10:06:46Z</time>
      </trkpt>
      <trkpt lat="48.8099" lon="2.17687">
        <ele>142</ele>
        <time>2019-12-15T10:06:55Z</time>
      </trkpt>
      <trkpt lat="48.8102" lon="2.17734">
        <ele>136</ele>
        <time>2019-12-15T10:07:28Z</time>
      </trkpt>
      <trkpt lat="48.81049" lon="2.17735">
        <ele>142</ele>
        <time>2019-12-15T10:07:54Z</time>
      </trkpt>
      <trkpt lat="48.81064" lon="2.17746">
        <ele>139</ele>
        <time>2019-12-15T10:08:14Z</time>
      </trkpt>
      <trkpt lat="48.81087" lon="2.17764">
        <ele>132</ele>
        <time>2019-12-15T10:08:48Z</time>
      </trkpt>
      <trkpt lat="48.8109" lon="2.17779">
        <ele>131</ele>
        <time>2019-12-15T10:08:57Z</time>
      </trkpt>
      <trkpt lat="48.81098" lon="2.17787">
        <ele>130</ele>
        <time>2019-12-15T10:09:06Z</time>
      </trkpt>
      <trkpt lat="48.81106" lon="2.17794">
        <ele>131</ele>
        <time>2019-12-15T10:09:16Z</time>
      </trkpt>
      <trkpt lat="48.81114" lon="2.17815">
        <ele>130</ele>
        <time>2019-12-15T10:09:31Z</time>
      </trkpt>
      <trkpt lat="48.81121" lon="2.17824">
        <ele>129</ele>
        <time>2019-12-15T10:09:40Z</time>
      </trkpt>
      <trkpt lat="48.81135" lon="2.17836">
        <ele>127</ele>
        <time>2019-12-15T10:10:01Z</time>
      </trkpt>
      <trkpt lat="48.81144" lon="2.1784">
        <ele>127</ele>
        <time>2019-12-15T10:10:09Z</time>
      </trkpt>
      <trkpt lat="48.81156" lon="2.17854">
        <ele>124</ele>
        <time>2019-12-15T10:10:28Z</time>
      </trkpt>
      <trkpt lat="48.8115" lon="2.17881">
        <ele>121</ele>
        <time>2019-12-15T10:10:45Z</time>
      </trkpt>
      <trkpt lat="48.8115" lon="2.17889">
        <ele>120</ele>
        <time>2019-12-15T10:10:49Z</time>
      </trkpt>
      <trkpt lat="48.81145" lon="2.17904">
        <ele>119</ele>
        <time>2019-12-15T10:10:57Z</time>
      </trkpt>
      <trkpt lat="48.81145" lon="2.17911">
        <ele>118</ele>
        <time>2019-12-15T10:11:01Z</time>
      </trkpt>
      <trkpt lat="48.81148" lon="2.17927">
        <ele>118</ele>
        <time>2019-12-15T10:11:08Z</time>
      </trkpt>
      <trkpt lat="48.81153" lon="2.17929">
        <ele>117</ele>
        <time>2019-12-15T10:11:12Z</time>
      </trkpt>
      <trkpt lat="48.81157" lon="2.17924">
        <ele>117</ele>
        <time>2019-12-15T10:11:16Z</time>
      </trkpt>
      <trkpt lat="48.81161" lon="2.17922">
        <ele>117</ele>
        <time>2019-12-15T10:11:20Z</time>
      </trkpt>
      <trkpt lat="48.81166" lon="2.17923">
        <ele>117</ele>
        <time>2019-12-15T10:11:25Z</time>
      </trkpt>
      <trkpt lat="48.81172" lon="2.1792">
        <ele>118</ele>
        <time>2019-12-15T10:11:32Z</time>
      </trkpt>
      <trkpt lat="48.81177" lon="2.1792">
        <ele>117</ele>
        <time>2019-12-15T10:11:36Z</time>
      </trkpt>
      <trkpt lat="48.81183" lon="2.17918">
        <ele>118</ele>
        <time>2019-12-15T10:11:40Z</time>
      </trkpt>
      <trkpt lat="48.81187" lon="2.17919">
        <ele>118</ele>
        <time>2019-12-15T10:11:43Z</time>
      </trkpt>
      <trkpt lat="48.81192" lon="2.17913">
        <ele>117</ele>
        <time>2019-12-15T10:11:48Z</time>
      </trkpt>
      <trkpt lat="48.81197" lon="2.17908">
        <ele>118</ele>
        <time>2019-12-15T10:11:51Z</time>
      </trkpt>
      <trkpt lat="48.81201" lon="2.17909">
        <ele>118</ele>
        <time>2019-12-15T10:11:55Z</time>
      </trkpt>
      <trkpt lat="48.81205" lon="2.17907">
        <ele>118</ele>
        <time>2019-12-15T10:12:00Z</time>
      </trkpt>
      <trkpt lat="48.81215" lon="2.17899">
        <ele>118</ele>
        <time>2019-12-15T10:12:11Z</time>
      </trkpt>
      <trkpt lat="48.81233" lon="2.17896">
        <ele>119</ele>
        <time>2019-12-15T10:12:26Z</time>
      </trkpt>
      <trkpt lat="48.81243" lon="2.1791">
        <ele>119</ele>
        <time>2019-12-15T10:12:38Z</time>
      </trkpt>
      <trkpt lat="48.81263" lon="2.17916">
        <ele>119</ele>
        <time>2019-12-15T10:12:52Z</time>
      </trkpt>
      <trkpt lat="48.81279" lon="2.1793">
        <ele>119</ele>
        <time>2019-12-15T10:13:05Z</time>
      </trkpt>
      <trkpt lat="48.81298" lon="2.1796">
        <ele>118</ele>
        <time>2019-12-15T10:13:26Z</time>
      </trkpt>
      <trkpt lat="48.81301" lon="2.17974">
        <ele>118</ele>
        <time>2019-12-15T10:13:32Z</time>
      </trkpt>
      <trkpt lat="48.81307" lon="2.17987">
        <ele>118</ele>
        <time>2019-12-15T10:13:40Z</time>
      </trkpt>
      <trkpt lat="48.8131" lon="2.18001">
        <ele>119</ele>
        <time>2019-12-15T10:13:47Z</time>
      </trkpt>
      <trkpt lat="48.81313" lon="2.1803">
        <ele>119</ele>
        <time>2019-12-15T10:14:00Z</time>
      </trkpt>
      <trkpt lat="48.81319" lon="2.18058">
        <ele>118</ele>
        <time>2019-12-15T10:14:15Z</time>
      </trkpt>
      <trkpt lat="48.81318" lon="2.18072">
        <ele>119</ele>
        <time>2019-12-15T10:14:23Z</time>
      </trkpt>
      <trkpt lat="48.81321" lon="2.18087">
        <ele>119</ele>
        <time>2019-12-15T10:14:30Z</time>
      </trkpt>
      <trkpt lat="48.81322" lon="2.18101">
        <ele>119</ele>
        <time>2019-12-15T10:14:37Z</time>
      </trkpt>
      <trkpt lat="48.81318" lon="2.18116">
        <ele>119</ele>
        <time>2019-12-15T10:14:43Z</time>
      </trkpt>
      <trkpt lat="48.81321" lon="2.18145">
        <ele>117</ele>
        <time>2019-12-15T10:14:57Z</time>
      </trkpt>
      <trkpt lat="48.81323" lon="2.18159">
        <ele>118</ele>
        <time>2019-12-15T10:15:04Z</time>
      </trkpt>
      <trkpt lat="48.81319" lon="2.18189">
        <ele>119</ele>
        <time>2019-12-15T10:15:17Z</time>
      </trkpt>
      <trkpt lat="48.81315" lon="2.18219">
        <ele>119</ele>
        <time>2019-12-15T10:15:31Z</time>
      </trkpt>
      <trkpt lat="48.81319" lon="2.18263">
        <ele>117</ele>
        <time>2019-12-15T10:15:53Z</time>
      </trkpt>
      <trkpt lat="48.81322" lon="2.18276">
        <ele>116</ele>
        <time>2019-12-15T10:16:00Z</time>
      </trkpt>
      <trkpt lat="48.81325" lon="2.18347">
        <ele>112</ele>
        <time>2019-12-15T10:16:33Z</time>
      </trkpt>
      <trkpt lat="48.81325" lon="2.18362">
        <ele>112</ele>
        <time>2019-12-15T10:16:41Z</time>
      </trkpt>
      <trkpt lat="48.81322" lon="2.18366">
        <ele>112</ele>
        <time>2019-12-15T10:20:26Z</time>
      </trkpt>
      <trkpt lat="48.81323" lon="2.18374">
        <ele>112</ele>
        <time>2019-12-15T10:20:29Z</time>
      </trkpt>
      <trkpt lat="48.81336" lon="2.18428">
        <ele>115</ele>
        <time>2019-12-15T10:20:51Z</time>
      </trkpt>
      <trkpt lat="48.81338" lon="2.18436">
        <ele>115</ele>
        <time>2019-12-15T10:20:55Z</time>
      </trkpt>
      <trkpt lat="48.8134" lon="2.18451">
        <ele>117</ele>
        <time>2019-12-15T10:21:04Z</time>
      </trkpt>
      <trkpt lat="48.8134" lon="2.18466">
        <ele>118</ele>
        <time>2019-12-15T10:21:12Z</time>
      </trkpt>
      <trkpt lat="48.81342" lon="2.18473">
        <ele>119</ele>
        <time>2019-12-15T10:21:16Z</time>
      </trkpt>
      <trkpt lat="48.81344" lon="2.1848">
        <ele>119</ele>
        <time>2019-12-15T10:21:20Z</time>
      </trkpt>
      <trkpt lat="48.81347" lon="2.1851">
        <ele>121</ele>
        <time>2019-12-15T10:21:38Z</time>
      </trkpt>
      <trkpt lat="48.81355" lon="2.18537">
        <ele>121</ele>
        <time>2019-12-15T10:21:53Z</time>
      </trkpt>
      <trkpt lat="48.8136" lon="2.18548">
        <ele>121</ele>
        <time>2019-12-15T10:21:59Z</time>
      </trkpt>
      <trkpt lat="48.8137" lon="2.18552">
        <ele>121</ele>
        <time>2019-12-15T10:22:06Z</time>
      </trkpt>
      <trkpt lat="48.81379" lon="2.18554">
        <ele>122</ele>
        <time>2019-12-15T10:22:13Z</time>
      </trkpt>
      <trkpt lat="48.81389" lon="2.18562">
        <ele>123</ele>
        <time>2019-12-15T10:22:24Z</time>
      </trkpt>
      <trkpt lat="48.81399" lon="2.18564">
        <ele>123</ele>
        <time>2019-12-15T10:22:32Z</time>
      </trkpt>
      <trkpt lat="48.81405" lon="2.18575">
        <ele>124</ele>
        <time>2019-12-15T10:22:40Z</time>
      </trkpt>
      <trkpt lat="48.81414" lon="2.18601">
        <ele>123</ele>
        <time>2019-12-15T10:22:55Z</time>
      </trkpt>
      <trkpt lat="48.81455" lon="2.18636">
        <ele>123</ele>
        <time>2019-12-15T10:23:28Z</time>
      </trkpt>
      <trkpt lat="48.81468" lon="2.18655">
        <ele>123</ele>
        <time>2019-12-15T10:23:42Z</time>
      </trkpt>
      <trkpt lat="48.81481" lon="2.18665">
        <ele>123</ele>
        <time>2019-12-15T10:23:53Z</time>
      </trkpt>
      <trkpt lat="48.81503" lon="2.18691">
        <ele>122</ele>
        <time>2019-12-15T10:24:15Z</time>
      </trkpt>
      <trkpt lat="48.81517" lon="2.18697">
        <ele>122</ele>
        <time>2019-12-15T10:24:27Z</time>
      </trkpt>
      <trkpt lat="48.81534" lon="2.18718">
        <ele>122</ele>
        <time>2019-12-15T10:24:43Z</time>
      </trkpt>
      <trkpt lat="48.81543" lon="2.18726">
        <ele>121</ele>
        <time>2019-12-15T10:24:51Z</time>
      </trkpt>
      <trkpt lat="48.81552" lon="2.18732">
        <ele>121</ele>
        <time>2019-12-15T10:24:59Z</time>
      </trkpt>
      <trkpt lat="48.81556" lon="2.18738">
        <ele>122</ele>
        <time>2019-12-15T10:25:04Z</time>
      </trkpt>
      <trkpt lat="48.81561" lon="2.18742">
        <ele>122</ele>
        <time>2019-12-15T10:25:08Z</time>
      </trkpt>
      <trkpt lat="48.81566" lon="2.18743">
        <ele>122</ele>
        <time>2019-12-15T10:25:12Z</time>
      </trkpt>
      <trkpt lat="48.81575" lon="2.1875">
        <ele>121</ele>
        <time>2019-12-15T10:25:20Z</time>
      </trkpt>
      <trkpt lat="48.8158" lon="2.18754">
        <ele>121</ele>
        <time>2019-12-15T10:25:24Z</time>
      </trkpt>
      <trkpt lat="48.8159" lon="2.18762">
        <ele>120</ele>
        <time>2019-12-15T10:25:34Z</time>
      </trkpt>
      <trkpt lat="48.81596" lon="2.1876">
        <ele>120</ele>
        <time>2019-12-15T10:25:39Z</time>
      </trkpt>
      <trkpt lat="48.81616" lon="2.18769">
        <ele>121</ele>
        <time>2019-12-15T10:25:55Z</time>
      </trkpt>
      <trkpt lat="48.81621" lon="2.18769">
        <ele>121</ele>
        <time>2019-12-15T10:25:59Z</time>
      </trkpt>
      <trkpt lat="48.81638" lon="2.18771">
        <ele>121</ele>
        <time>2019-12-15T10:26:18Z</time>
      </trkpt>
      <trkpt lat="48.81647" lon="2.18766">
        <ele>121</ele>
        <time>2019-12-15T10:26:26Z</time>
      </trkpt>
      <trkpt lat="48.81653" lon="2.18755">
        <ele>122</ele>
        <time>2019-12-15T10:26:35Z</time>
      </trkpt>
      <trkpt lat="48.8166" lon="2.18746">
        <ele>123</ele>
        <time>2019-12-15T10:26:44Z</time>
      </trkpt>
      <trkpt lat="48.8167" lon="2.1872">
        <ele>124</ele>
        <time>2019-12-15T10:27:01Z</time>
      </trkpt>
      <trkpt lat="48.81678" lon="2.18711">
        <ele>125</ele>
        <time>2019-12-15T10:27:10Z</time>
      </trkpt>
      <trkpt lat="48.81696" lon="2.18703">
        <ele>127</ele>
        <time>2019-12-15T10:27:24Z</time>
      </trkpt>
      <trkpt lat="48.81714" lon="2.18702">
        <ele>130</ele>
        <time>2019-12-15T10:27:41Z</time>
      </trkpt>
      <trkpt lat="48.81732" lon="2.18713">
        <ele>133</ele>
        <time>2019-12-15T10:27:58Z</time>
      </trkpt>
      <trkpt lat="48.81743" lon="2.18731">
        <ele>134</ele>
        <time>2019-12-15T10:28:20Z</time>
      </trkpt>
      <trkpt lat="48.8175" lon="2.18741">
        <ele>133</ele>
        <time>2019-12-15T10:28:27Z</time>
      </trkpt>
      <trkpt lat="48.81763" lon="2.18763">
        <ele>134</ele>
        <time>2019-12-15T10:28:42Z</time>
      </trkpt>
      <trkpt lat="48.81771" lon="2.18768">
        <ele>135</ele>
        <time>2019-12-15T10:28:49Z</time>
      </trkpt>
      <trkpt lat="48.81775" lon="2.18792">
        <ele>134</ele>
        <time>2019-12-15T10:29:04Z</time>
      </trkpt>
      <trkpt lat="48.81778" lon="2.18805">
        <ele>133</ele>
        <time>2019-12-15T10:29:10Z</time>
      </trkpt>
      <trkpt lat="48.81777" lon="2.18819">
        <ele>131</ele>
        <time>2019-12-15T10:29:17Z</time>
      </trkpt>
      <trkpt lat="48.81786" lon="2.18892">
        <ele>124</ele>
        <time>2019-12-15T10:29:54Z</time>
      </trkpt>
      <trkpt lat="48.81788" lon="2.18908">
        <ele>124</ele>
        <time>2019-12-15T10:30:03Z</time>
      </trkpt>
      <trkpt lat="48.81788" lon="2.1898">
        <ele>116</ele>
        <time>2019-12-15T10:30:40Z</time>
      </trkpt>
      <trkpt lat="48.81788" lon="2.18994">
        <ele>116</ele>
        <time>2019-12-15T10:30:47Z</time>
      </trkpt>
      <trkpt lat="48.81788" lon="2.19052">
        <ele>111</ele>
        <time>2019-12-15T10:31:18Z</time>
      </trkpt>
      <trkpt lat="48.81791" lon="2.19066">
        <ele>109</ele>
        <time>2019-12-15T10:31:26Z</time>
      </trkpt>
      <trkpt lat="48.81789" lon="2.19096">
        <ele>107</ele>
        <time>2019-12-15T10:31:40Z</time>
      </trkpt>
      <trkpt lat="48.81793" lon="2.19154">
        <ele>101</ele>
        <time>2019-12-15T10:32:15Z</time>
      </trkpt>
      <trkpt lat="48.81793" lon="2.19199">
        <ele>97</ele>
        <time>2019-12-15T10:32:38Z</time>
      </trkpt>
      <trkpt lat="48.81795" lon="2.19214">
        <ele>97</ele>
        <time>2019-12-15T10:32:44Z</time>
      </trkpt>
      <trkpt lat="48.81804" lon="2.19221">
        <ele>96</ele>
        <time>2019-12-15T10:32:53Z</time>
      </trkpt>
      <trkpt lat="48.81834" lon="2.19217">
        <ele>100</ele>
        <time>2019-12-15T10:33:19Z</time>
      </trkpt>
      <trkpt lat="48.81844" lon="2.19212">
        <ele>101</ele>
        <time>2019-12-15T10:33:27Z</time>
      </trkpt>
      <trkpt lat="48.81861" lon="2.19213">
        <ele>103</ele>
        <time>2019-12-15T10:33:42Z</time>
      </trkpt>
      <trkpt lat="48.81867" lon="2.19213">
        <ele>103</ele>
        <time>2019-12-15T10:33:47Z</time>
      </trkpt>
      <trkpt lat="48.81876" lon="2.19216">
        <ele>105</ele>
        <time>2019-12-15T10:33:55Z</time>
      </trkpt>
      <trkpt lat="48.81881" lon="2.1922">
        <ele>106</ele>
        <time>2019-12-15T10:34:04Z</time>
      </trkpt>
      <trkpt lat="48.819" lon="2.19207">
        <ele>110</ele>
        <time>2019-12-15T10:34:25Z</time>
      </trkpt>
      <trkpt lat="48.81905" lon="2.19198">
        <ele>111</ele>
        <time>2019-12-15T10:34:35Z</time>
      </trkpt>
      <trkpt lat="48.8191" lon="2.19196">
        <ele>112</ele>
        <time>2019-12-15T10:34:40Z</time>
      </trkpt>
      <trkpt lat="48.8193" lon="2.19191">
        <ele>116</ele>
        <time>2019-12-15T10:35:11Z</time>
      </trkpt>
      <trkpt lat="48.81935" lon="2.19186">
        <ele>118</ele>
        <time>2019-12-15T10:35:23Z</time>
      </trkpt>
      <trkpt lat="48.81945" lon="2.19189">
        <ele>119</ele>
        <time>2019-12-15T10:35:39Z</time>
      </trkpt>
      <trkpt lat="48.81954" lon="2.19195">
        <ele>120</ele>
        <time>2019-12-15T10:35:58Z</time>
      </trkpt>
      <trkpt lat="48.81959" lon="2.19196">
        <ele>121</ele>
        <time>2019-12-15T10:36:02Z</time>
      </trkpt>
      <trkpt lat="48.81964" lon="2.19196">
        <ele>122</ele>
        <time>2019-12-15T10:36:07Z</time>
      </trkpt>
      <trkpt lat="48.8197" lon="2.19193">
        <ele>122</ele>
        <time>2019-12-15T10:36:15Z</time>
      </trkpt>
      <trkpt lat="48.81981" lon="2.19194">
        <ele>125</ele>
        <time>2019-12-15T10:36:31Z</time>
      </trkpt>
      <trkpt lat="48.81989" lon="2.19203">
        <ele>126</ele>
        <time>2019-12-15T10:36:39Z</time>
      </trkpt>
      <trkpt lat="48.81998" lon="2.19205">
        <ele>128</ele>
        <time>2019-12-15T10:36:48Z</time>
      </trkpt>
      <trkpt lat="48.82011" lon="2.19216">
        <ele>131</ele>
        <time>2019-12-15T10:37:06Z</time>
      </trkpt>
      <trkpt lat="48.82017" lon="2.19227">
        <ele>131</ele>
        <time>2019-12-15T10:37:14Z</time>
      </trkpt>
      <trkpt lat="48.82027" lon="2.19232">
        <ele>132</ele>
        <time>2019-12-15T10:37:23Z</time>
      </trkpt>
      <trkpt lat="48.82038" lon="2.19228">
        <ele>136</ele>
        <time>2019-12-15T10:37:37Z</time>
      </trkpt>
      <trkpt lat="48.82041" lon="2.19224">
        <ele>137</ele>
        <time>2019-12-15T10:37:43Z</time>
      </trkpt>
      <trkpt lat="48.82043" lon="2.19217">
        <ele>138</ele>
        <time>2019-12-15T10:37:49Z</time>
      </trkpt>
      <trkpt lat="48.82049" lon="2.19204">
        <ele>140</ele>
        <time>2019-12-15T10:37:59Z</time>
      </trkpt>
      <trkpt lat="48.82052" lon="2.19199">
        <ele>140</ele>
        <time>2019-12-15T10:38:03Z</time>
      </trkpt>
      <trkpt lat="48.82059" lon="2.19187">
        <ele>140</ele>
        <time>2019-12-15T10:38:13Z</time>
      </trkpt>
      <trkpt lat="48.82062" lon="2.19158">
        <ele>140</ele>
        <time>2019-12-15T10:38:29Z</time>
      </trkpt>
      <trkpt lat="48.8206" lon="2.19126">
        <ele>141</ele>
        <time>2019-12-15T10:38:45Z</time>
      </trkpt>
      <trkpt lat="48.82061" lon="2.19119">
        <ele>141</ele>
        <time>2019-12-15T10:38:49Z</time>
      </trkpt>
      <trkpt lat="48.82062" lon="2.19111">
        <ele>140</ele>
        <time>2019-12-15T10:38:53Z</time>
      </trkpt>
      <trkpt lat="48.82062" lon="2.19103">
        <ele>140</ele>
        <time>2019-12-15T10:38:57Z</time>
      </trkpt>
      <trkpt lat="48.82062" lon="2.1908">
        <ele>140</ele>
        <time>2019-12-15T10:39:09Z</time>
      </trkpt>
      <trkpt lat="48.82063" lon="2.19062">
        <ele>138</ele>
        <time>2019-12-15T10:39:20Z</time>
      </trkpt>
      <trkpt lat="48.82063" lon="2.19039">
        <ele>137</ele>
        <time>2019-12-15T10:39:32Z</time>
      </trkpt>
      <trkpt lat="48.82065" lon="2.19024">
        <ele>137</ele>
        <time>2019-12-15T10:39:40Z</time>
      </trkpt>
      <trkpt lat="48.82059" lon="2.1896">
        <ele>134</ele>
        <time>2019-12-15T10:40:12Z</time>
      </trkpt>
      <trkpt lat="48.82055" lon="2.1891">
        <ele>132</ele>
        <time>2019-12-15T10:40:36Z</time>
      </trkpt>
      <trkpt lat="48.82054" lon="2.18898">
        <ele>133</ele>
        <time>2019-12-15T10:40:52Z</time>
      </trkpt>
      <trkpt lat="48.82051" lon="2.18893">
        <ele>133</ele>
        <time>2019-12-15T10:41:10Z</time>
      </trkpt>
      <trkpt lat="48.82051" lon="2.18877">
        <ele>132</ele>
        <time>2019-12-15T10:41:31Z</time>
      </trkpt>
      <trkpt lat="48.82051" lon="2.18869">
        <ele>131</ele>
        <time>2019-12-15T10:41:35Z</time>
      </trkpt>
      <trkpt lat="48.82057" lon="2.18839">
        <ele>129</ele>
        <time>2019-12-15T10:41:54Z</time>
      </trkpt>
      <trkpt lat="48.82059" lon="2.18832">
        <ele>129</ele>
        <time>2019-12-15T10:41:58Z</time>
      </trkpt>
      <trkpt lat="48.8206" lon="2.18794">
        <ele>127</ele>
        <time>2019-12-15T10:42:18Z</time>
      </trkpt>
      <trkpt lat="48.82059" lon="2.18771">
        <ele>125</ele>
        <time>2019-12-15T10:42:30Z</time>
      </trkpt>
      <trkpt lat="48.82059" lon="2.18763">
        <ele>125</ele>
        <time>2019-12-15T10:42:34Z</time>
      </trkpt>
      <trkpt lat="48.82058" lon="2.18756">
        <ele>125</ele>
        <time>2019-12-15T10:42:37Z</time>
      </trkpt>
      <trkpt lat="48.82058" lon="2.1874">
        <ele>125</ele>
        <time>2019-12-15T10:42:45Z</time>
      </trkpt>
      <trkpt lat="48.82056" lon="2.18701">
        <ele>122</ele>
        <time>2019-12-15T10:43:05Z</time>
      </trkpt>
      <trkpt lat="48.82053" lon="2.18688">
        <ele>121</ele>
        <time>2019-12-15T10:43:13Z</time>
      </trkpt>
      <trkpt lat="48.82056" lon="2.1865">
        <ele>119</ele>
        <time>2019-12-15T10:43:32Z</time>
      </trkpt>
      <trkpt lat="48.82052" lon="2.18619">
        <ele>118</ele>
        <time>2019-12-15T10:43:44Z</time>
      </trkpt>
      <trkpt lat="48.82052" lon="2.18605">
        <ele>118</ele>
        <time>2019-12-15T10:43:51Z</time>
      </trkpt>
      <trkpt lat="48.82046" lon="2.18533">
        <ele>118</ele>
        <time>2019-12-15T10:44:25Z</time>
      </trkpt>
      <trkpt lat="48.82045" lon="2.18518">
        <ele>118</ele>
        <time>2019-12-15T10:44:33Z</time>
      </trkpt>
      <trkpt lat="48.82044" lon="2.18508">
        <ele>118</ele>
        <time>2019-12-15T10:44:38Z</time>
      </trkpt>
      <trkpt lat="48.82044" lon="2.185">
        <ele>118</ele>
        <time>2019-12-15T10:44:42Z</time>
      </trkpt>
      <trkpt lat="48.82047" lon="2.18494">
        <ele>118</ele>
        <time>2019-12-15T10:44:52Z</time>
      </trkpt>
      <trkpt lat="48.82053" lon="2.18484">
        <ele>118</ele>
        <time>2019-12-15T10:45:08Z</time>
      </trkpt>
      <trkpt lat="48.82068" lon="2.18481">
        <ele>116</ele>
        <time>2019-12-15T10:45:20Z</time>
      </trkpt>
      <trkpt lat="48.82074" lon="2.18478">
        <ele>115</ele>
        <time>2019-12-15T10:45:24Z</time>
      </trkpt>
      <trkpt lat="48.82078" lon="2.18474">
        <ele>115</ele>
        <time>2019-12-15T10:45:27Z</time>
      </trkpt>
      <trkpt lat="48.82085" lon="2.18473">
        <ele>115</ele>
        <time>2019-12-15T10:45:47Z</time>
      </trkpt>
      <trkpt lat="48.82108" lon="2.18458">
        <ele>114</ele>
        <time>2019-12-15T10:46:05Z</time>
      </trkpt>
      <trkpt lat="48.82148" lon="2.18448">
        <ele>114</ele>
        <time>2019-12-15T10:46:35Z</time>
      </trkpt>
      <trkpt lat="48.82152" lon="2.18451">
        <ele>114</ele>
        <time>2019-12-15T10:46:40Z</time>
      </trkpt>
      <trkpt lat="48.82156" lon="2.18439">
        <ele>115</ele>
        <time>2019-12-15T10:47:01Z</time>
      </trkpt>
      <trkpt lat="48.82162" lon="2.18439">
        <ele>114</ele>
        <time>2019-12-15T10:47:05Z</time>
      </trkpt>
      <trkpt lat="48.82168" lon="2.18443">
        <ele>115</ele>
        <time>2019-12-15T10:47:15Z</time>
      </trkpt>
      <trkpt lat="48.82173" lon="2.18441">
        <ele>116</ele>
        <time>2019-12-15T10:47:27Z</time>
      </trkpt>
      <trkpt lat="48.8218" lon="2.18432">
        <ele>115</ele>
        <time>2019-12-15T10:47:44Z</time>
      </trkpt>
      <trkpt lat="48.82185" lon="2.18429">
        <ele>115</ele>
        <time>2019-12-15T10:47:48Z</time>
      </trkpt>
      <trkpt lat="48.82185" lon="2.1842">
        <ele>115</ele>
        <time>2019-12-15T10:47:55Z</time>
      </trkpt>
      <trkpt lat="48.82187" lon="2.18411">
        <ele>115</ele>
        <time>2019-12-15T10:48:02Z</time>
      </trkpt>
      <trkpt lat="48.82189" lon="2.18396">
        <ele>115</ele>
        <time>2019-12-15T10:48:10Z</time>
      </trkpt>
      <trkpt lat="48.82186" lon="2.1839">
        <ele>114</ele>
        <time>2019-12-15T10:48:25Z</time>
      </trkpt>
      <trkpt lat="48.82186" lon="2.18382">
        <ele>114</ele>
        <time>2019-12-15T10:48:46Z</time>
      </trkpt>
      <trkpt lat="48.82181" lon="2.18391">
        <ele>119</ele>
        <time>2019-12-15T11:05:57Z</time>
      </trkpt>
      <trkpt lat="48.82181" lon="2.18391">
        <ele>119</ele>
        <time>2019-12-15T11:05:57Z</time>
      </trkpt>
      <trkpt lat="48.82181" lon="2.18394">
        <ele>118</ele>
        <time>2019-12-15T11:08:18Z</time>
      </trkpt>
      <trkpt lat="48.82185" lon="2.18406">
        <ele>117</ele>
        <time>2019-12-15T11:09:31Z</time>
      </trkpt>
      <trkpt lat="48.82191" lon="2.18413">
        <ele>117</ele>
        <time>2019-12-15T11:09:43Z</time>
      </trkpt>
      <trkpt lat="48.82203" lon="2.18418">
        <ele>118</ele>
        <time>2019-12-15T11:10:02Z</time>
      </trkpt>
      <trkpt lat="48.82207" lon="2.18422">
        <ele>118</ele>
        <time>2019-12-15T11:10:06Z</time>
      </trkpt>
      <trkpt lat="48.82211" lon="2.18426">
        <ele>119</ele>
        <time>2019-12-15T11:10:10Z</time>
      </trkpt>
      <trkpt lat="48.82217" lon="2.18428">
        <ele>120</ele>
        <time>2019-12-15T11:10:18Z</time>
      </trkpt>
      <trkpt lat="48.82223" lon="2.18431">
        <ele>119</ele>
        <time>2019-12-15T11:10:22Z</time>
      </trkpt>
      <trkpt lat="48.82225" lon="2.18437">
        <ele>119</ele>
        <time>2019-12-15T11:10:25Z</time>
      </trkpt>
      <trkpt lat="48.8223" lon="2.18442">
        <ele>119</ele>
        <time>2019-12-15T11:10:29Z</time>
      </trkpt>
      <trkpt lat="48.82232" lon="2.1845">
        <ele>119</ele>
        <time>2019-12-15T11:10:33Z</time>
      </trkpt>
      <trkpt lat="48.82236" lon="2.18456">
        <ele>119</ele>
        <time>2019-12-15T11:10:37Z</time>
      </trkpt>
      <trkpt lat="48.82245" lon="2.1846">
        <ele>119</ele>
        <time>2019-12-15T11:10:43Z</time>
      </trkpt>
      <trkpt lat="48.82249" lon="2.18464">
        <ele>119</ele>
        <time>2019-12-15T11:10:46Z</time>
      </trkpt>
      <trkpt lat="48.82255" lon="2.18475">
        <ele>120</ele>
        <time>2019-12-15T11:10:53Z</time>
      </trkpt>
      <trkpt lat="48.82262" lon="2.18486">
        <ele>120</ele>
        <time>2019-12-15T11:11:01Z</time>
      </trkpt>
      <trkpt lat="48.82263" lon="2.18494">
        <ele>120</ele>
        <time>2019-12-15T11:11:05Z</time>
      </trkpt>
      <trkpt lat="48.82268" lon="2.185">
        <ele>120</ele>
        <time>2019-12-15T11:11:12Z</time>
      </trkpt>
      <trkpt lat="48.82276" lon="2.18512">
        <ele>121</ele>
        <time>2019-12-15T11:11:19Z</time>
      </trkpt>
      <trkpt lat="48.82279" lon="2.18519">
        <ele>121</ele>
        <time>2019-12-15T11:11:23Z</time>
      </trkpt>
      <trkpt lat="48.8228" lon="2.18528">
        <ele>121</ele>
        <time>2019-12-15T11:11:28Z</time>
      </trkpt>
      <trkpt lat="48.82283" lon="2.18534">
        <ele>121</ele>
        <time>2019-12-15T11:11:31Z</time>
      </trkpt>
      <trkpt lat="48.82289" lon="2.18545">
        <ele>120</ele>
        <time>2019-12-15T11:11:37Z</time>
      </trkpt>
      <trkpt lat="48.82293" lon="2.18552">
        <ele>121</ele>
        <time>2019-12-15T11:11:41Z</time>
      </trkpt>
      <trkpt lat="48.82311" lon="2.18583">
        <ele>120</ele>
        <time>2019-12-15T11:12:00Z</time>
      </trkpt>
      <trkpt lat="48.82314" lon="2.18589">
        <ele>121</ele>
        <time>2019-12-15T11:12:04Z</time>
      </trkpt>
      <trkpt lat="48.82318" lon="2.18593">
        <ele>121</ele>
        <time>2019-12-15T11:12:08Z</time>
      </trkpt>
      <trkpt lat="48.82322" lon="2.18596">
        <ele>121</ele>
        <time>2019-12-15T11:12:11Z</time>
      </trkpt>
      <trkpt lat="48.82329" lon="2.18596">
        <ele>121</ele>
        <time>2019-12-15T11:12:15Z</time>
      </trkpt>
      <trkpt lat="48.82336" lon="2.18606">
        <ele>120</ele>
        <time>2019-12-15T11:12:22Z</time>
      </trkpt>
      <trkpt lat="48.82346" lon="2.1861">
        <ele>119</ele>
        <time>2019-12-15T11:12:28Z</time>
      </trkpt>
      <trkpt lat="48.8235" lon="2.18614">
        <ele>118</ele>
        <time>2019-12-15T11:12:32Z</time>
      </trkpt>
      <trkpt lat="48.82354" lon="2.18622">
        <ele>118</ele>
        <time>2019-12-15T11:12:38Z</time>
      </trkpt>
      <trkpt lat="48.82354" lon="2.18631">
        <ele>118</ele>
        <time>2019-12-15T11:12:41Z</time>
      </trkpt>
      <trkpt lat="48.82357" lon="2.18637">
        <ele>117</ele>
        <time>2019-12-15T11:12:44Z</time>
      </trkpt>
      <trkpt lat="48.8236" lon="2.18643">
        <ele>117</ele>
        <time>2019-12-15T11:12:47Z</time>
      </trkpt>
      <trkpt lat="48.82365" lon="2.18655">
        <ele>117</ele>
        <time>2019-12-15T11:12:53Z</time>
      </trkpt>
      <trkpt lat="48.82365" lon="2.18664">
        <ele>116</ele>
        <time>2019-12-15T11:12:57Z</time>
      </trkpt>
      <trkpt lat="48.82367" lon="2.1867">
        <ele>116</ele>
        <time>2019-12-15T11:13:00Z</time>
      </trkpt>
      <trkpt lat="48.82378" lon="2.18678">
        <ele>115</ele>
        <time>2019-12-15T11:13:07Z</time>
      </trkpt>
      <trkpt lat="48.82382" lon="2.18681">
        <ele>115</ele>
        <time>2019-12-15T11:13:10Z</time>
      </trkpt>
      <trkpt lat="48.8239" lon="2.18692">
        <ele>114</ele>
        <time>2019-12-15T11:13:17Z</time>
      </trkpt>
      <trkpt lat="48.82404" lon="2.18704">
        <ele>113</ele>
        <time>2019-12-15T11:13:28Z</time>
      </trkpt>
      <trkpt lat="48.82408" lon="2.1871">
        <ele>113</ele>
        <time>2019-12-15T11:13:32Z</time>
      </trkpt>
      <trkpt lat="48.82414" lon="2.18724">
        <ele>112</ele>
        <time>2019-12-15T11:13:40Z</time>
      </trkpt>
      <trkpt lat="48.82423" lon="2.18737">
        <ele>111</ele>
        <time>2019-12-15T11:13:50Z</time>
      </trkpt>
      <trkpt lat="48.82426" lon="2.18746">
        <ele>111</ele>
        <time>2019-12-15T11:13:56Z</time>
      </trkpt>
      <trkpt lat="48.82426" lon="2.18754">
        <ele>111</ele>
        <time>2019-12-15T11:14:00Z</time>
      </trkpt>
      <trkpt lat="48.8243" lon="2.18759">
        <ele>111</ele>
        <time>2019-12-15T11:14:04Z</time>
      </trkpt>
      <trkpt lat="48.82434" lon="2.18764">
        <ele>111</ele>
        <time>2019-12-15T11:14:07Z</time>
      </trkpt>
      <trkpt lat="48.82456" lon="2.188">
        <ele>109</ele>
        <time>2019-12-15T11:14:32Z</time>
      </trkpt>
      <trkpt lat="48.82465" lon="2.18806">
        <ele>109</ele>
        <time>2019-12-15T11:14:38Z</time>
      </trkpt>
      <trkpt lat="48.82471" lon="2.18805">
        <ele>109</ele>
        <time>2019-12-15T11:14:47Z</time>
      </trkpt>
      <trkpt lat="48.82476" lon="2.18813">
        <ele>108</ele>
        <time>2019-12-15T11:14:53Z</time>
      </trkpt>
      <trkpt lat="48.8248" lon="2.1882">
        <ele>109</ele>
        <time>2019-12-15T11:14:56Z</time>
      </trkpt>
      <trkpt lat="48.82487" lon="2.18834">
        <ele>108</ele>
        <time>2019-12-15T11:15:02Z</time>
      </trkpt>
      <trkpt lat="48.82513" lon="2.18874">
        <ele>109</ele>
        <time>2019-12-15T11:15:27Z</time>
      </trkpt>
      <trkpt lat="48.82516" lon="2.18881">
        <ele>109</ele>
        <time>2019-12-15T11:15:31Z</time>
      </trkpt>
      <trkpt lat="48.82517" lon="2.18889">
        <ele>110</ele>
        <time>2019-12-15T11:15:35Z</time>
      </trkpt>
      <trkpt lat="48.8252" lon="2.18895">
        <ele>110</ele>
        <time>2019-12-15T11:15:39Z</time>
      </trkpt>
      <trkpt lat="48.82525" lon="2.18901">
        <ele>109</ele>
        <time>2019-12-15T11:15:44Z</time>
      </trkpt>
      <trkpt lat="48.82534" lon="2.18908">
        <ele>109</ele>
        <time>2019-12-15T11:15:52Z</time>
      </trkpt>
      <trkpt lat="48.82541" lon="2.18921">
        <ele>109</ele>
        <time>2019-12-15T11:16:00Z</time>
      </trkpt>
      <trkpt lat="48.82545" lon="2.18924">
        <ele>109</ele>
        <time>2019-12-15T11:16:04Z</time>
      </trkpt>
      <trkpt lat="48.82549" lon="2.18928">
        <ele>109</ele>
        <time>2019-12-15T11:16:07Z</time>
      </trkpt>
      <trkpt lat="48.82559" lon="2.18933">
        <ele>108</ele>
        <time>2019-12-15T11:16:13Z</time>
      </trkpt>
      <trkpt lat="48.82564" lon="2.18933">
        <ele>108</ele>
        <time>2019-12-15T11:16:17Z</time>
      </trkpt>
      <trkpt lat="48.82569" lon="2.18937">
        <ele>107</ele>
        <time>2019-12-15T11:16:21Z</time>
      </trkpt>
      <trkpt lat="48.82572" lon="2.18943">
        <ele>107</ele>
        <time>2019-12-15T11:16:24Z</time>
      </trkpt>
      <trkpt lat="48.82576" lon="2.18949">
        <ele>107</ele>
        <time>2019-12-15T11:16:28Z</time>
      </trkpt>
      <trkpt lat="48.82581" lon="2.18951">
        <ele>107</ele>
        <time>2019-12-15T11:16:31Z</time>
      </trkpt>
      <trkpt lat="48.82591" lon="2.18953">
        <ele>107</ele>
        <time>2019-12-15T11:16:39Z</time>
      </trkpt>
      <trkpt lat="48.82596" lon="2.18948">
        <ele>107</ele>
        <time>2019-12-15T11:16:43Z</time>
      </trkpt>
      <trkpt lat="48.82605" lon="2.18947">
        <ele>107</ele>
        <time>2019-12-15T11:16:49Z</time>
      </trkpt>
      <trkpt lat="48.82613" lon="2.18939">
        <ele>107</ele>
        <time>2019-12-15T11:16:55Z</time>
      </trkpt>
      <trkpt lat="48.82624" lon="2.18936">
        <ele>107</ele>
        <time>2019-12-15T11:17:01Z</time>
      </trkpt>
      <trkpt lat="48.82629" lon="2.18927">
        <ele>107</ele>
        <time>2019-12-15T11:17:07Z</time>
      </trkpt>
      <trkpt lat="48.82632" lon="2.1892">
        <ele>107</ele>
        <time>2019-12-15T11:17:09Z</time>
      </trkpt>
      <trkpt lat="48.82635" lon="2.18915">
        <ele>107</ele>
        <time>2019-12-15T11:17:12Z</time>
      </trkpt>
      <trkpt lat="48.82645" lon="2.18912">
        <ele>107</ele>
        <time>2019-12-15T11:17:18Z</time>
      </trkpt>
      <trkpt lat="48.82647" lon="2.189">
        <ele>108</ele>
        <time>2019-12-15T11:17:31Z</time>
      </trkpt>
      <trkpt lat="48.82647" lon="2.18888">
        <ele>108</ele>
        <time>2019-12-15T11:17:41Z</time>
      </trkpt>
      <trkpt lat="48.82655" lon="2.18879">
        <ele>108</ele>
        <time>2019-12-15T11:17:50Z</time>
      </trkpt>
      <trkpt lat="48.82659" lon="2.18877">
        <ele>108</ele>
        <time>2019-12-15T11:17:55Z</time>
      </trkpt>
      <trkpt lat="48.82663" lon="2.1888">
        <ele>109</ele>
        <time>2019-12-15T11:18:03Z</time>
      </trkpt>
      <trkpt lat="48.82672" lon="2.18876">
        <ele>108</ele>
        <time>2019-12-15T11:18:15Z</time>
      </trkpt>
      <trkpt lat="48.82676" lon="2.18877">
        <ele>109</ele>
        <time>2019-12-15T11:18:19Z</time>
      </trkpt>
      <trkpt lat="48.82686" lon="2.18888">
        <ele>108</ele>
        <time>2019-12-15T11:18:32Z</time>
      </trkpt>
      <trkpt lat="48.82691" lon="2.18898">
        <ele>108</ele>
        <time>2019-12-15T11:18:58Z</time>
      </trkpt>
      <trkpt lat="48.82695" lon="2.18904">
        <ele>107</ele>
        <time>2019-12-15T11:19:03Z</time>
      </trkpt>
      <trkpt lat="48.82693" lon="2.18912">
        <ele>107</ele>
        <time>2019-12-15T11:19:47Z</time>
      </trkpt>
      <trkpt lat="48.82697" lon="2.18897">
        <ele>108</ele>
        <time>2019-12-15T11:22:48Z</time>
      </trkpt>
      <trkpt lat="48.82702" lon="2.18903">
        <ele>109</ele>
        <time>2019-12-15T11:22:59Z</time>
      </trkpt>
      <trkpt lat="48.82707" lon="2.18894">
        <ele>109</ele>
        <time>2019-12-15T11:26:53Z</time>
      </trkpt>
      <trkpt lat="48.82711" lon="2.18891">
        <ele>110</ele>
        <time>2019-12-15T11:26:56Z</time>
      </trkpt>
      <trkpt lat="48.82716" lon="2.18886">
        <ele>110</ele>
        <time>2019-12-15T11:27:00Z</time>
      </trkpt>
      <trkpt lat="48.82722" lon="2.18885">
        <ele>110</ele>
        <time>2019-12-15T11:27:04Z</time>
      </trkpt>
      <trkpt lat="48.82726" lon="2.18886">
        <ele>110</ele>
        <time>2019-12-15T11:27:07Z</time>
      </trkpt>
      <trkpt lat="48.82732" lon="2.18887">
        <ele>111</ele>
        <time>2019-12-15T11:27:11Z</time>
      </trkpt>
      <trkpt lat="48.82742" lon="2.18891">
        <ele>110</ele>
        <time>2019-12-15T11:27:19Z</time>
      </trkpt>
      <trkpt lat="48.82747" lon="2.18892">
        <ele>111</ele>
        <time>2019-12-15T11:27:23Z</time>
      </trkpt>
      <trkpt lat="48.82756" lon="2.18896">
        <ele>111</ele>
        <time>2019-12-15T11:27:31Z</time>
      </trkpt>
      <trkpt lat="48.82761" lon="2.18898">
        <ele>111</ele>
        <time>2019-12-15T11:27:35Z</time>
      </trkpt>
      <trkpt lat="48.82765" lon="2.18894">
        <ele>110</ele>
        <time>2019-12-15T11:27:45Z</time>
      </trkpt>
      <trkpt lat="48.82756" lon="2.18921">
        <ele>112</ele>
        <time>2019-12-15T11:28:14Z</time>
      </trkpt>
      <trkpt lat="48.82756" lon="2.1891">
        <ele>114</ele>
        <time>2019-12-15T11:30:10Z</time>
      </trkpt>
      <trkpt lat="48.82753" lon="2.18906">
        <ele>113</ele>
        <time>2019-12-15T11:35:55Z</time>
      </trkpt>
      <trkpt lat="48.82749" lon="2.18904">
        <ele>113</ele>
        <time>2019-12-15T11:37:07Z</time>
      </trkpt>
      <trkpt lat="48.82734" lon="2.18854">
        <ele>113</ele>
        <time>2019-12-15T11:37:20Z</time>
      </trkpt>
      <trkpt lat="48.82751" lon="2.1887">
        <ele>113</ele>
        <time>2019-12-15T11:37:27Z</time>
      </trkpt>
      <trkpt lat="48.82762" lon="2.18876">
        <ele>113</ele>
        <time>2019-12-15T11:37:32Z</time>
      </trkpt>
      <trkpt lat="48.82802" lon="2.18942">
        <ele>113</ele>
        <time>2019-12-15T11:38:04Z</time>
      </trkpt>
      <trkpt lat="48.82806" lon="2.18944">
        <ele>113</ele>
        <time>2019-12-15T11:38:08Z</time>
      </trkpt>
      <trkpt lat="48.8282" lon="2.18969">
        <ele>114</ele>
        <time>2019-12-15T11:38:25Z</time>
      </trkpt>
      <trkpt lat="48.82821" lon="2.18984">
        <ele>114</ele>
        <time>2019-12-15T11:38:31Z</time>
      </trkpt>
      <trkpt lat="48.82826" lon="2.18997">
        <ele>114</ele>
        <time>2019-12-15T11:38:37Z</time>
      </trkpt>
      <trkpt lat="48.82826" lon="2.19012">
        <ele>114</ele>
        <time>2019-12-15T11:38:43Z</time>
      </trkpt>
      <trkpt lat="48.8283" lon="2.19025">
        <ele>115</ele>
        <time>2019-12-15T11:38:49Z</time>
      </trkpt>
      <trkpt lat="48.82832" lon="2.19039">
        <ele>115</ele>
        <time>2019-12-15T11:38:56Z</time>
      </trkpt>
      <trkpt lat="48.82837" lon="2.19068">
        <ele>115</ele>
        <time>2019-12-15T11:39:12Z</time>
      </trkpt>
      <trkpt lat="48.82842" lon="2.1908">
        <ele>115</ele>
        <time>2019-12-15T11:39:18Z</time>
      </trkpt>
      <trkpt lat="48.82845" lon="2.19095">
        <ele>115</ele>
        <time>2019-12-15T11:39:25Z</time>
      </trkpt>
      <trkpt lat="48.82839" lon="2.19109">
        <ele>115</ele>
        <time>2019-12-15T11:39:31Z</time>
      </trkpt>
      <trkpt lat="48.82849" lon="2.19169">
        <ele>116</ele>
        <time>2019-12-15T11:39:59Z</time>
      </trkpt>
      <trkpt lat="48.82859" lon="2.19193">
        <ele>116</ele>
        <time>2019-12-15T11:40:10Z</time>
      </trkpt>
      <trkpt lat="48.82862" lon="2.19208">
        <ele>116</ele>
        <time>2019-12-15T11:40:17Z</time>
      </trkpt>
      <trkpt lat="48.82868" lon="2.19249">
        <ele>116</ele>
        <time>2019-12-15T11:40:36Z</time>
      </trkpt>
      <trkpt lat="48.82867" lon="2.19264">
        <ele>116</ele>
        <time>2019-12-15T11:40:43Z</time>
      </trkpt>
      <trkpt lat="48.82874" lon="2.19274">
        <ele>116</ele>
        <time>2019-12-15T11:40:48Z</time>
      </trkpt>
      <trkpt lat="48.82868" lon="2.19286">
        <ele>116</ele>
        <time>2019-12-15T11:40:56Z</time>
      </trkpt>
      <trkpt lat="48.82891" lon="2.19322">
        <ele>116</ele>
        <time>2019-12-15T11:41:20Z</time>
      </trkpt>
      <trkpt lat="48.82905" lon="2.1934">
        <ele>117</ele>
        <time>2019-12-15T11:41:33Z</time>
      </trkpt>
      <trkpt lat="48.82911" lon="2.19351">
        <ele>117</ele>
        <time>2019-12-15T11:41:40Z</time>
      </trkpt>
      <trkpt lat="48.8292" lon="2.19374">
        <ele>118</ele>
        <time>2019-12-15T11:42:06Z</time>
      </trkpt>
      <trkpt lat="48.82937" lon="2.19385">
        <ele>119</ele>
        <time>2019-12-15T11:42:21Z</time>
      </trkpt>
      <trkpt lat="48.82952" lon="2.19403">
        <ele>119</ele>
        <time>2019-12-15T11:42:37Z</time>
      </trkpt>
      <trkpt lat="48.82954" lon="2.19417">
        <ele>120</ele>
        <time>2019-12-15T11:42:46Z</time>
      </trkpt>
      <trkpt lat="48.82973" lon="2.19449">
        <ele>122</ele>
        <time>2019-12-15T11:43:08Z</time>
      </trkpt>
      <trkpt lat="48.83" lon="2.19469">
        <ele>124</ele>
        <time>2019-12-15T11:43:28Z</time>
      </trkpt>
      <trkpt lat="48.8301" lon="2.19473">
        <ele>125</ele>
        <time>2019-12-15T11:43:51Z</time>
      </trkpt>
      <trkpt lat="48.83015" lon="2.1948">
        <ele>125</ele>
        <time>2019-12-15T11:44:22Z</time>
      </trkpt>
      <trkpt lat="48.83018" lon="2.19488">
        <ele>125</ele>
        <time>2019-12-15T11:44:26Z</time>
      </trkpt>
      <trkpt lat="48.83018" lon="2.19504">
        <ele>125</ele>
        <time>2019-12-15T11:44:34Z</time>
      </trkpt>
      <trkpt lat="48.83026" lon="2.19525">
        <ele>126</ele>
        <time>2019-12-15T11:44:42Z</time>
      </trkpt>
      <trkpt lat="48.83025" lon="2.19532">
        <ele>126</ele>
        <time>2019-12-15T11:44:45Z</time>
      </trkpt>
      <trkpt lat="48.83028" lon="2.19539">
        <ele>126</ele>
        <time>2019-12-15T11:44:49Z</time>
      </trkpt>
      <trkpt lat="48.8303" lon="2.19546">
        <ele>126</ele>
        <time>2019-12-15T11:44:53Z</time>
      </trkpt>
      <trkpt lat="48.83033" lon="2.19561">
        <ele>127</ele>
        <time>2019-12-15T11:45:02Z</time>
      </trkpt>
      <trkpt lat="48.83044" lon="2.19577">
        <ele>128</ele>
        <time>2019-12-15T11:45:16Z</time>
      </trkpt>
      <trkpt lat="48.83047" lon="2.19592">
        <ele>129</ele>
        <time>2019-12-15T11:45:25Z</time>
      </trkpt>
      <trkpt lat="48.83043" lon="2.19607">
        <ele>130</ele>
        <time>2019-12-15T11:45:33Z</time>
      </trkpt>
      <trkpt lat="48.83042" lon="2.1962">
        <ele>130</ele>
        <time>2019-12-15T11:45:42Z</time>
      </trkpt>
      <trkpt lat="48.83041" lon="2.19636">
        <ele>130</ele>
        <time>2019-12-15T11:45:50Z</time>
      </trkpt>
      <trkpt lat="48.83042" lon="2.19644">
        <ele>130</ele>
        <time>2019-12-15T11:45:54Z</time>
      </trkpt>
      <trkpt lat="48.83043" lon="2.19652">
        <ele>131</ele>
        <time>2019-12-15T11:45:58Z</time>
      </trkpt>
      <trkpt lat="48.83046" lon="2.19683">
        <ele>131</ele>
        <time>2019-12-15T11:46:13Z</time>
      </trkpt>
      <trkpt lat="48.83046" lon="2.1969">
        <ele>132</ele>
        <time>2019-12-15T11:46:17Z</time>
      </trkpt>
      <trkpt lat="48.83045" lon="2.19707">
        <ele>132</ele>
        <time>2019-12-15T11:46:25Z</time>
      </trkpt>
      <trkpt lat="48.83045" lon="2.19716">
        <ele>132</ele>
        <time>2019-12-15T11:46:29Z</time>
      </trkpt>
      <trkpt lat="48.83051" lon="2.19751">
        <ele>133</ele>
        <time>2019-12-15T11:46:47Z</time>
      </trkpt>
      <trkpt lat="48.83049" lon="2.19765">
        <ele>133</ele>
        <time>2019-12-15T11:46:54Z</time>
      </trkpt>
      <trkpt lat="48.83048" lon="2.19771">
        <ele>133</ele>
        <time>2019-12-15T11:46:57Z</time>
      </trkpt>
      <trkpt lat="48.83047" lon="2.19779">
        <ele>134</ele>
        <time>2019-12-15T11:47:01Z</time>
      </trkpt>
      <trkpt lat="48.83048" lon="2.19788">
        <ele>134</ele>
        <time>2019-12-15T11:47:05Z</time>
      </trkpt>
      <trkpt lat="48.83048" lon="2.19795">
        <ele>134</ele>
        <time>2019-12-15T11:47:09Z</time>
      </trkpt>
      <trkpt lat="48.83049" lon="2.19804">
        <ele>134</ele>
        <time>2019-12-15T11:47:13Z</time>
      </trkpt>
      <trkpt lat="48.83051" lon="2.19819">
        <ele>135</ele>
        <time>2019-12-15T11:47:21Z</time>
      </trkpt>
      <trkpt lat="48.83051" lon="2.19836">
        <ele>135</ele>
        <time>2019-12-15T11:47:29Z</time>
      </trkpt>
      <trkpt lat="48.83053" lon="2.19851">
        <ele>135</ele>
        <time>2019-12-15T11:47:36Z</time>
      </trkpt>
      <trkpt lat="48.83056" lon="2.19891">
        <ele>136</ele>
        <time>2019-12-15T11:47:55Z</time>
      </trkpt>
      <trkpt lat="48.83058" lon="2.19898">
        <ele>136</ele>
        <time>2019-12-15T11:47:58Z</time>
      </trkpt>
      <trkpt lat="48.83053" lon="2.1993">
        <ele>136</ele>
        <time>2019-12-15T11:48:14Z</time>
      </trkpt>
      <trkpt lat="48.83054" lon="2.19938">
        <ele>136</ele>
        <time>2019-12-15T11:48:17Z</time>
      </trkpt>
      <trkpt lat="48.83055" lon="2.19944">
        <ele>136</ele>
        <time>2019-12-15T11:48:21Z</time>
      </trkpt>
      <trkpt lat="48.83059" lon="2.19957">
        <ele>136</ele>
        <time>2019-12-15T11:49:35Z</time>
      </trkpt>
      <trkpt lat="48.8306" lon="2.1999">
        <ele>135</ele>
        <time>2019-12-15T11:49:51Z</time>
      </trkpt>
      <trkpt lat="48.83059" lon="2.19999">
        <ele>135</ele>
        <time>2019-12-15T11:49:55Z</time>
      </trkpt>
      <trkpt lat="48.83056" lon="2.20004">
        <ele>135</ele>
        <time>2019-12-15T11:49:59Z</time>
      </trkpt>
      <trkpt lat="48.83053" lon="2.20009">
        <ele>135</ele>
        <time>2019-12-15T11:50:03Z</time>
      </trkpt>
      <trkpt lat="48.8305" lon="2.20015">
        <ele>135</ele>
        <time>2019-12-15T11:50:07Z</time>
      </trkpt>
      <trkpt lat="48.83048" lon="2.20024">
        <ele>135</ele>
        <time>2019-12-15T11:50:11Z</time>
      </trkpt>
      <trkpt lat="48.83039" lon="2.20081">
        <ele>133</ele>
        <time>2019-12-15T11:50:40Z</time>
      </trkpt>
      <trkpt lat="48.83039" lon="2.20095">
        <ele>132</ele>
        <time>2019-12-15T11:50:47Z</time>
      </trkpt>
      <trkpt lat="48.83036" lon="2.20109">
        <ele>132</ele>
        <time>2019-12-15T11:50:54Z</time>
      </trkpt>
      <trkpt lat="48.83028" lon="2.20169">
        <ele>130</ele>
        <time>2019-12-15T11:51:25Z</time>
      </trkpt>
      <trkpt lat="48.83015" lon="2.20211">
        <ele>130</ele>
        <time>2019-12-15T11:51:43Z</time>
      </trkpt>
      <trkpt lat="48.83011" lon="2.20254">
        <ele>128</ele>
        <time>2019-12-15T11:52:03Z</time>
      </trkpt>
      <trkpt lat="48.83007" lon="2.20267">
        <ele>128</ele>
        <time>2019-12-15T11:52:10Z</time>
      </trkpt>
      <trkpt lat="48.82992" lon="2.20321">
        <ele>127</ele>
        <time>2019-12-15T11:52:37Z</time>
      </trkpt>
      <trkpt lat="48.8298" lon="2.20393">
        <ele>126</ele>
        <time>2019-12-15T11:53:12Z</time>
      </trkpt>
      <trkpt lat="48.82973" lon="2.20437">
        <ele>125</ele>
        <time>2019-12-15T11:53:35Z</time>
      </trkpt>
      <trkpt lat="48.82974" lon="2.20452">
        <ele>124</ele>
        <time>2019-12-15T11:53:41Z</time>
      </trkpt>
      <trkpt lat="48.82971" lon="2.20466">
        <ele>124</ele>
        <time>2019-12-15T11:53:47Z</time>
      </trkpt>
      <trkpt lat="48.8297" lon="2.2048">
        <ele>123</ele>
        <time>2019-12-15T11:53:53Z</time>
      </trkpt>
      <trkpt lat="48.82969" lon="2.2051">
        <ele>123</ele>
        <time>2019-12-15T11:54:09Z</time>
      </trkpt>
      <trkpt lat="48.82966" lon="2.20539">
        <ele>123</ele>
        <time>2019-12-15T11:54:22Z</time>
      </trkpt>
      <trkpt lat="48.82967" lon="2.20554">
        <ele>122</ele>
        <time>2019-12-15T11:54:28Z</time>
      </trkpt>
      <trkpt lat="48.82961" lon="2.20582">
        <ele>121</ele>
        <time>2019-12-15T11:54:43Z</time>
      </trkpt>
      <trkpt lat="48.82949" lon="2.20651">
        <ele>120</ele>
        <time>2019-12-15T11:55:17Z</time>
      </trkpt>
      <trkpt lat="48.82943" lon="2.20678">
        <ele>119</ele>
        <time>2019-12-15T11:55:31Z</time>
      </trkpt>
      <trkpt lat="48.82942" lon="2.20694">
        <ele>119</ele>
        <time>2019-12-15T11:55:38Z</time>
      </trkpt>
      <trkpt lat="48.82932" lon="2.20751">
        <ele>118</ele>
        <time>2019-12-15T11:56:08Z</time>
      </trkpt>
      <trkpt lat="48.82927" lon="2.20778">
        <ele>118</ele>
        <time>2019-12-15T11:56:21Z</time>
      </trkpt>
      <trkpt lat="48.8291" lon="2.20847">
        <ele>117</ele>
        <time>2019-12-15T11:56:55Z</time>
      </trkpt>
      <trkpt lat="48.82898" lon="2.20889">
        <ele>117</ele>
        <time>2019-12-15T11:57:16Z</time>
      </trkpt>
      <trkpt lat="48.82886" lon="2.20961">
        <ele>116</ele>
        <time>2019-12-15T11:57:51Z</time>
      </trkpt>
      <trkpt lat="48.82875" lon="2.21032">
        <ele>115</ele>
        <time>2019-12-15T11:58:25Z</time>
      </trkpt>
      <trkpt lat="48.82871" lon="2.2106">
        <ele>115</ele>
        <time>2019-12-15T11:58:38Z</time>
      </trkpt>
      <trkpt lat="48.82867" lon="2.21074">
        <ele>114</ele>
        <time>2019-12-15T11:58:45Z</time>
      </trkpt>
      <trkpt lat="48.8286" lon="2.211">
        <ele>114</ele>
        <time>2019-12-15T11:58:57Z</time>
      </trkpt>
      <trkpt lat="48.82847" lon="2.2117">
        <ele>113</ele>
        <time>2019-12-15T11:59:32Z</time>
      </trkpt>
      <trkpt lat="48.82835" lon="2.21243">
        <ele>111</ele>
        <time>2019-12-15T12:00:10Z</time>
      </trkpt>
      <trkpt lat="48.82832" lon="2.21271">
        <ele>111</ele>
        <time>2019-12-15T12:00:22Z</time>
      </trkpt>
      <trkpt lat="48.82848" lon="2.21288">
        <ele>110</ele>
        <time>2019-12-15T12:00:34Z</time>
      </trkpt>
      <trkpt lat="48.82853" lon="2.21301">
        <ele>110</ele>
        <time>2019-12-15T12:00:42Z</time>
      </trkpt>
      <trkpt lat="48.82856" lon="2.21335">
        <ele>109</ele>
        <time>2019-12-15T12:01:02Z</time>
      </trkpt>
      <trkpt lat="48.82863" lon="2.21362">
        <ele>107</ele>
        <time>2019-12-15T12:01:15Z</time>
      </trkpt>
      <trkpt lat="48.82864" lon="2.21376">
        <ele>107</ele>
        <time>2019-12-15T12:01:21Z</time>
      </trkpt>
      <trkpt lat="48.82876" lon="2.21414">
        <ele>106</ele>
        <time>2019-12-15T12:01:42Z</time>
      </trkpt>
      <trkpt lat="48.8291" lon="2.21446">
        <ele>106</ele>
        <time>2019-12-15T12:02:08Z</time>
      </trkpt>
      <trkpt lat="48.82937" lon="2.21489">
        <ele>105</ele>
        <time>2019-12-15T12:02:39Z</time>
      </trkpt>
      <trkpt lat="48.82946" lon="2.215">
        <ele>104</ele>
        <time>2019-12-15T12:02:47Z</time>
      </trkpt>
      <trkpt lat="48.82955" lon="2.21526">
        <ele>104</ele>
        <time>2019-12-15T12:03:01Z</time>
      </trkpt>
      <trkpt lat="48.82986" lon="2.21563">
        <ele>104</ele>
        <time>2019-12-15T12:03:27Z</time>
      </trkpt>
      <trkpt lat="48.83003" lon="2.21598">
        <ele>104</ele>
        <time>2019-12-15T12:03:49Z</time>
      </trkpt>
      <trkpt lat="48.83012" lon="2.21614">
        <ele>103</ele>
        <time>2019-12-15T12:04:02Z</time>
      </trkpt>
      <trkpt lat="48.83051" lon="2.2166">
        <ele>102</ele>
        <time>2019-12-15T12:04:34Z</time>
      </trkpt>
      <trkpt lat="48.8309" lon="2.21705">
        <ele>101</ele>
        <time>2019-12-15T12:05:07Z</time>
      </trkpt>
      <trkpt lat="48.83112" lon="2.21731">
        <ele>100</ele>
        <time>2019-12-15T12:05:27Z</time>
      </trkpt>
      <trkpt lat="48.83122" lon="2.21757">
        <ele>100</ele>
        <time>2019-12-15T12:05:40Z</time>
      </trkpt>
      <trkpt lat="48.83124" lon="2.21787">
        <ele>99</ele>
        <time>2019-12-15T12:05:55Z</time>
      </trkpt>
      <trkpt lat="48.83133" lon="2.21791">
        <ele>98</ele>
        <time>2019-12-15T12:06:05Z</time>
      </trkpt>
      <trkpt lat="48.83146" lon="2.21798">
        <ele>99</ele>
        <time>2019-12-15T12:06:26Z</time>
      </trkpt>
      <trkpt lat="48.8316" lon="2.21788">
        <ele>99</ele>
        <time>2019-12-15T12:10:26Z</time>
      </trkpt>
      <trkpt lat="48.83179" lon="2.21779">
        <ele>98</ele>
        <time>2019-12-15T12:10:40Z</time>
      </trkpt>
      <trkpt lat="48.83188" lon="2.21776">
        <ele>98</ele>
        <time>2019-12-15T12:10:47Z</time>
      </trkpt>
      <trkpt lat="48.83201" lon="2.21776">
        <ele>98</ele>
        <time>2019-12-15T12:11:05Z</time>
      </trkpt>
      <trkpt lat="48.83242" lon="2.21762">
        <ele>95</ele>
        <time>2019-12-15T12:11:40Z</time>
      </trkpt>
      <trkpt lat="48.83298" lon="2.21749">
        <ele>91</ele>
        <time>2019-12-15T12:12:16Z</time>
      </trkpt>
      <trkpt lat="48.83339" lon="2.21747">
        <ele>88</ele>
        <time>2019-12-15T12:12:48Z</time>
      </trkpt>
      <trkpt lat="48.83349" lon="2.21745">
        <ele>88</ele>
        <time>2019-12-15T12:12:55Z</time>
      </trkpt>
      <trkpt lat="48.83358" lon="2.21735">
        <ele>87</ele>
        <time>2019-12-15T12:13:02Z</time>
      </trkpt>
      <trkpt lat="48.83367" lon="2.21729">
        <ele>87</ele>
        <time>2019-12-15T12:13:08Z</time>
      </trkpt>
      <trkpt lat="48.83373" lon="2.21721">
        <ele>87</ele>
        <time>2019-12-15T12:13:18Z</time>
      </trkpt>
      <trkpt lat="48.83383" lon="2.21717">
        <ele>86</ele>
        <time>2019-12-15T12:13:48Z</time>
      </trkpt>
      <trkpt lat="48.83391" lon="2.2171">
        <ele>86</ele>
        <time>2019-12-15T12:13:56Z</time>
      </trkpt>
      <trkpt lat="48.83399" lon="2.21703">
        <ele>85</ele>
        <time>2019-12-15T12:14:03Z</time>
      </trkpt>
      <trkpt lat="48.83401" lon="2.21689">
        <ele>85</ele>
        <time>2019-12-15T12:14:12Z</time>
      </trkpt>
      <trkpt lat="48.83407" lon="2.21675">
        <ele>84</ele>
        <time>2019-12-15T12:14:18Z</time>
      </trkpt>
      <trkpt lat="48.83414" lon="2.21667">
        <ele>85</ele>
        <time>2019-12-15T12:14:25Z</time>
      </trkpt>
      <trkpt lat="48.83418" lon="2.21652">
        <ele>84</ele>
        <time>2019-12-15T12:14:33Z</time>
      </trkpt>
      <trkpt lat="48.83422" lon="2.2164">
        <ele>83</ele>
        <time>2019-12-15T12:14:42Z</time>
      </trkpt>
      <trkpt lat="48.83432" lon="2.21635">
        <ele>83</ele>
        <time>2019-12-15T12:14:48Z</time>
      </trkpt>
      <trkpt lat="48.83442" lon="2.2161">
        <ele>83</ele>
        <time>2019-12-15T12:15:00Z</time>
      </trkpt>
      <trkpt lat="48.83443" lon="2.21594">
        <ele>82</ele>
        <time>2019-12-15T12:15:08Z</time>
      </trkpt>
      <trkpt lat="48.83448" lon="2.21582">
        <ele>81</ele>
        <time>2019-12-15T12:15:15Z</time>
      </trkpt>
      <trkpt lat="48.83455" lon="2.21572">
        <ele>80</ele>
        <time>2019-12-15T12:15:21Z</time>
      </trkpt>
      <trkpt lat="48.83459" lon="2.21557">
        <ele>80</ele>
        <time>2019-12-15T12:15:27Z</time>
      </trkpt>
      <trkpt lat="48.8348" lon="2.21526">
        <ele>77</ele>
        <time>2019-12-15T12:15:50Z</time>
      </trkpt>
      <trkpt lat="48.83488" lon="2.21499">
        <ele>77</ele>
        <time>2019-12-15T12:16:03Z</time>
      </trkpt>
      <trkpt lat="48.83502" lon="2.2148">
        <ele>77</ele>
        <time>2019-12-15T12:16:16Z</time>
      </trkpt>
      <trkpt lat="48.83501" lon="2.21465">
        <ele>78</ele>
        <time>2019-12-15T12:16:22Z</time>
      </trkpt>
      <trkpt lat="48.83497" lon="2.21452">
        <ele>78</ele>
        <time>2019-12-15T12:16:29Z</time>
      </trkpt>
      <trkpt lat="48.83487" lon="2.21397">
        <ele>82</ele>
        <time>2019-12-15T12:17:04Z</time>
      </trkpt>
      <trkpt lat="48.83472" lon="2.21359">
        <ele>86</ele>
        <time>2019-12-15T12:17:29Z</time>
      </trkpt>
      <trkpt lat="48.83471" lon="2.21344">
        <ele>87</ele>
        <time>2019-12-15T12:17:38Z</time>
      </trkpt>
      <trkpt lat="48.83459" lon="2.21306">
        <ele>90</ele>
        <time>2019-12-15T12:17:59Z</time>
      </trkpt>
      <trkpt lat="48.83455" lon="2.21278">
        <ele>92</ele>
        <time>2019-12-15T12:18:14Z</time>
      </trkpt>
      <trkpt lat="48.83455" lon="2.21255">
        <ele>92</ele>
        <time>2019-12-15T12:19:14Z</time>
      </trkpt>
      <trkpt lat="48.83438" lon="2.21203">
        <ele>94</ele>
        <time>2019-12-15T12:19:41Z</time>
      </trkpt>
      <trkpt lat="48.83437" lon="2.21174">
        <ele>95</ele>
        <time>2019-12-15T12:19:57Z</time>
      </trkpt>
      <trkpt lat="48.83432" lon="2.2116">
        <ele>95</ele>
        <time>2019-12-15T12:20:04Z</time>
      </trkpt>
      <trkpt lat="48.83425" lon="2.21149">
        <ele>96</ele>
        <time>2019-12-15T12:20:12Z</time>
      </trkpt>
      <trkpt lat="48.8342" lon="2.21135">
        <ele>96</ele>
        <time>2019-12-15T12:20:20Z</time>
      </trkpt>
      <trkpt lat="48.83416" lon="2.21121">
        <ele>97</ele>
        <time>2019-12-15T12:20:28Z</time>
      </trkpt>
      <trkpt lat="48.83408" lon="2.21111">
        <ele>97</ele>
        <time>2019-12-15T12:20:35Z</time>
      </trkpt>
      <trkpt lat="48.83389" lon="2.21044">
        <ele>99</ele>
        <time>2019-12-15T12:21:12Z</time>
      </trkpt>
      <trkpt lat="48.83377" lon="2.21021">
        <ele>100</ele>
        <time>2019-12-15T12:21:26Z</time>
      </trkpt>
      <trkpt lat="48.83366" lon="2.20981">
        <ele>101</ele>
        <time>2019-12-15T12:21:48Z</time>
      </trkpt>
      <trkpt lat="48.83363" lon="2.20965">
        <ele>101</ele>
        <time>2019-12-15T12:21:58Z</time>
      </trkpt>
      <trkpt lat="48.83351" lon="2.20942">
        <ele>102</ele>
        <time>2019-12-15T12:22:11Z</time>
      </trkpt>
      <trkpt lat="48.83337" lon="2.20889">
        <ele>104</ele>
        <time>2019-12-15T12:22:42Z</time>
      </trkpt>
      <trkpt lat="48.83329" lon="2.20861">
        <ele>104</ele>
        <time>2019-12-15T12:22:58Z</time>
      </trkpt>
      <trkpt lat="48.83314" lon="2.20808">
        <ele>106</ele>
        <time>2019-12-15T12:23:31Z</time>
      </trkpt>
      <trkpt lat="48.8331" lon="2.20791">
        <ele>106</ele>
        <time>2019-12-15T12:24:53Z</time>
      </trkpt>
      <trkpt lat="48.83296" lon="2.20751">
        <ele>108</ele>
        <time>2019-12-15T12:25:14Z</time>
      </trkpt>
      <trkpt lat="48.83289" lon="2.20723">
        <ele>108</ele>
        <time>2019-12-15T12:25:28Z</time>
      </trkpt>
      <trkpt lat="48.83284" lon="2.20712">
        <ele>108</ele>
        <time>2019-12-15T12:25:35Z</time>
      </trkpt>
      <trkpt lat="48.83278" lon="2.20684">
        <ele>109</ele>
        <time>2019-12-15T12:25:49Z</time>
      </trkpt>
      <trkpt lat="48.83273" lon="2.20671">
        <ele>109</ele>
        <time>2019-12-15T12:25:56Z</time>
      </trkpt>
      <trkpt lat="48.83262" lon="2.20631">
        <ele>110</ele>
        <time>2019-12-15T12:26:18Z</time>
      </trkpt>
      <trkpt lat="48.83247" lon="2.20611">
        <ele>111</ele>
        <time>2019-12-15T12:26:35Z</time>
      </trkpt>
      <trkpt lat="48.83229" lon="2.20544">
        <ele>114</ele>
        <time>2019-12-15T12:27:09Z</time>
      </trkpt>
      <trkpt lat="48.83212" lon="2.20491">
        <ele>115</ele>
        <time>2019-12-15T12:27:40Z</time>
      </trkpt>
      <trkpt lat="48.83207" lon="2.20478">
        <ele>116</ele>
        <time>2019-12-15T12:27:48Z</time>
      </trkpt>
      <trkpt lat="48.83207" lon="2.20464">
        <ele>116</ele>
        <time>2019-12-15T12:27:56Z</time>
      </trkpt>
      <trkpt lat="48.83208" lon="2.2045">
        <ele>117</ele>
        <time>2019-12-15T12:28:03Z</time>
      </trkpt>
      <trkpt lat="48.83197" lon="2.20393">
        <ele>119</ele>
        <time>2019-12-15T12:28:34Z</time>
      </trkpt>
      <trkpt lat="48.83182" lon="2.20354">
        <ele>120</ele>
        <time>2019-12-15T12:28:55Z</time>
      </trkpt>
      <trkpt lat="48.8317" lon="2.20313">
        <ele>121</ele>
        <time>2019-12-15T12:29:16Z</time>
      </trkpt>
      <trkpt lat="48.83166" lon="2.203">
        <ele>121</ele>
        <time>2019-12-15T12:29:23Z</time>
      </trkpt>
      <trkpt lat="48.83162" lon="2.20287">
        <ele>122</ele>
        <time>2019-12-15T12:29:30Z</time>
      </trkpt>
      <trkpt lat="48.83158" lon="2.20273">
        <ele>122</ele>
        <time>2019-12-15T12:29:37Z</time>
      </trkpt>
      <trkpt lat="48.83149" lon="2.20248">
        <ele>124</ele>
        <time>2019-12-15T12:29:52Z</time>
      </trkpt>
      <trkpt lat="48.83145" lon="2.20233">
        <ele>124</ele>
        <time>2019-12-15T12:30:00Z</time>
      </trkpt>
      <trkpt lat="48.83141" lon="2.20218">
        <ele>125</ele>
        <time>2019-12-15T12:30:08Z</time>
      </trkpt>
      <trkpt lat="48.83135" lon="2.20207">
        <ele>126</ele>
        <time>2019-12-15T12:30:15Z</time>
      </trkpt>
      <trkpt lat="48.83125" lon="2.20168">
        <ele>127</ele>
        <time>2019-12-15T12:30:36Z</time>
      </trkpt>
      <trkpt lat="48.83122" lon="2.20154">
        <ele>128</ele>
        <time>2019-12-15T12:30:43Z</time>
      </trkpt>
      <trkpt lat="48.83101" lon="2.2009">
        <ele>130</ele>
        <time>2019-12-15T12:31:18Z</time>
      </trkpt>
      <trkpt lat="48.83097" lon="2.20076">
        <ele>131</ele>
        <time>2019-12-15T12:31:25Z</time>
      </trkpt>
      <trkpt lat="48.83096" lon="2.20062">
        <ele>132</ele>
        <time>2019-12-15T12:31:33Z</time>
      </trkpt>
      <trkpt lat="48.83078" lon="2.20003">
        <ele>133</ele>
        <time>2019-12-15T12:32:09Z</time>
      </trkpt>
      <trkpt lat="48.83078" lon="2.19989">
        <ele>134</ele>
        <time>2019-12-15T12:32:16Z</time>
      </trkpt>
      <trkpt lat="48.83076" lon="2.19976">
        <ele>134</ele>
        <time>2019-12-15T12:32:37Z</time>
      </trkpt>
      <trkpt lat="48.83077" lon="2.19969">
        <ele>134</ele>
        <time>2019-12-15T12:33:01Z</time>
      </trkpt>
      <trkpt lat="48.83088" lon="2.19933">
        <ele>134</ele>
        <time>2019-12-15T12:33:19Z</time>
      </trkpt>
      <trkpt lat="48.83101" lon="2.19906">
        <ele>133</ele>
        <time>2019-12-15T12:33:36Z</time>
      </trkpt>
      <trkpt lat="48.83109" lon="2.19895">
        <ele>133</ele>
        <time>2019-12-15T12:33:44Z</time>
      </trkpt>
      <trkpt lat="48.83115" lon="2.19882">
        <ele>133</ele>
        <time>2019-12-15T12:33:51Z</time>
      </trkpt>
      <trkpt lat="48.83122" lon="2.19873">
        <ele>132</ele>
        <time>2019-12-15T12:33:57Z</time>
      </trkpt>
      <trkpt lat="48.83128" lon="2.1986">
        <ele>132</ele>
        <time>2019-12-15T12:34:04Z</time>
      </trkpt>
      <trkpt lat="48.83156" lon="2.19824">
        <ele>130</ele>
        <time>2019-12-15T12:34:30Z</time>
      </trkpt>
      <trkpt lat="48.83166" lon="2.19801">
        <ele>130</ele>
        <time>2019-12-15T12:34:44Z</time>
      </trkpt>
      <trkpt lat="48.83175" lon="2.19795">
        <ele>130</ele>
        <time>2019-12-15T12:34:51Z</time>
      </trkpt>
      <trkpt lat="48.83196" lon="2.19744">
        <ele>130</ele>
        <time>2019-12-15T12:35:18Z</time>
      </trkpt>
      <trkpt lat="48.83206" lon="2.19738">
        <ele>130</ele>
        <time>2019-12-15T12:35:24Z</time>
      </trkpt>
      <trkpt lat="48.8322" lon="2.19719">
        <ele>130</ele>
        <time>2019-12-15T12:35:37Z</time>
      </trkpt>
      <trkpt lat="48.83225" lon="2.19705">
        <ele>130</ele>
        <time>2019-12-15T12:35:44Z</time>
      </trkpt>
      <trkpt lat="48.83241" lon="2.19689">
        <ele>128</ele>
        <time>2019-12-15T12:35:57Z</time>
      </trkpt>
      <trkpt lat="48.83264" lon="2.19645">
        <ele>126</ele>
        <time>2019-12-15T12:36:23Z</time>
      </trkpt>
      <trkpt lat="48.833" lon="2.19596">
        <ele>124</ele>
        <time>2019-12-15T12:36:59Z</time>
      </trkpt>
      <trkpt lat="48.83318" lon="2.19561">
        <ele>123</ele>
        <time>2019-12-15T12:37:22Z</time>
      </trkpt>
      <trkpt lat="48.83323" lon="2.19549">
        <ele>123</ele>
        <time>2019-12-15T12:37:29Z</time>
      </trkpt>
      <trkpt lat="48.8333" lon="2.1954">
        <ele>122</ele>
        <time>2019-12-15T12:37:36Z</time>
      </trkpt>
      <trkpt lat="48.83336" lon="2.19529">
        <ele>123</ele>
        <time>2019-12-15T12:37:43Z</time>
      </trkpt>
      <trkpt lat="48.8334" lon="2.19517">
        <ele>123</ele>
        <time>2019-12-15T12:37:50Z</time>
      </trkpt>
      <trkpt lat="48.83348" lon="2.19507">
        <ele>122</ele>
        <time>2019-12-15T12:37:58Z</time>
      </trkpt>
      <trkpt lat="48.83352" lon="2.19493">
        <ele>122</ele>
        <time>2019-12-15T12:38:05Z</time>
      </trkpt>
      <trkpt lat="48.83354" lon="2.19481">
        <ele>122</ele>
        <time>2019-12-15T12:38:12Z</time>
      </trkpt>
      <trkpt lat="48.83354" lon="2.19474">
        <ele>122</ele>
        <time>2019-12-15T12:38:16Z</time>
      </trkpt>
      <trkpt lat="48.83355" lon="2.19465">
        <ele>122</ele>
        <time>2019-12-15T12:38:20Z</time>
      </trkpt>
      <trkpt lat="48.83368" lon="2.19439">
        <ele>122</ele>
        <time>2019-12-15T12:38:36Z</time>
      </trkpt>
      <trkpt lat="48.83369" lon="2.1943">
        <ele>122</ele>
        <time>2019-12-15T12:38:43Z</time>
      </trkpt>
      <trkpt lat="48.83365" lon="2.19426">
        <ele>122</ele>
        <time>2019-12-15T12:38:47Z</time>
      </trkpt>
      <trkpt lat="48.83361" lon="2.19425">
        <ele>122</ele>
        <time>2019-12-15T12:38:51Z</time>
      </trkpt>
      <trkpt lat="48.83369" lon="2.19404">
        <ele>123</ele>
        <time>2019-12-15T12:39:35Z</time>
      </trkpt>
      <trkpt lat="48.83372" lon="2.19387">
        <ele>124</ele>
        <time>2019-12-15T12:39:47Z</time>
      </trkpt>
      <trkpt lat="48.83378" lon="2.19375">
        <ele>124</ele>
        <time>2019-12-15T12:39:55Z</time>
      </trkpt>
      <trkpt lat="48.83385" lon="2.19333">
        <ele>125</ele>
        <time>2019-12-15T12:40:15Z</time>
      </trkpt>
      <trkpt lat="48.83382" lon="2.19318">
        <ele>125</ele>
        <time>2019-12-15T12:40:22Z</time>
      </trkpt>
      <trkpt lat="48.83388" lon="2.19305">
        <ele>126</ele>
        <time>2019-12-15T12:40:30Z</time>
      </trkpt>
      <trkpt lat="48.83385" lon="2.19276">
        <ele>127</ele>
        <time>2019-12-15T12:40:45Z</time>
      </trkpt>
      <trkpt lat="48.83391" lon="2.19249">
        <ele>127</ele>
        <time>2019-12-15T12:41:00Z</time>
      </trkpt>
      <trkpt lat="48.8339" lon="2.19218">
        <ele>128</ele>
        <time>2019-12-15T12:41:14Z</time>
      </trkpt>
      <trkpt lat="48.83392" lon="2.19202">
        <ele>129</ele>
        <time>2019-12-15T12:41:21Z</time>
      </trkpt>
      <trkpt lat="48.83387" lon="2.19173">
        <ele>130</ele>
        <time>2019-12-15T12:41:34Z</time>
      </trkpt>
      <trkpt lat="48.83379" lon="2.19146">
        <ele>132</ele>
        <time>2019-12-15T12:41:48Z</time>
      </trkpt>
      <trkpt lat="48.83381" lon="2.19131">
        <ele>133</ele>
        <time>2019-12-15T12:41:55Z</time>
      </trkpt>
      <trkpt lat="48.83385" lon="2.19119">
        <ele>133</ele>
        <time>2019-12-15T12:42:01Z</time>
      </trkpt>
      <trkpt lat="48.83391" lon="2.19078">
        <ele>136</ele>
        <time>2019-12-15T12:42:24Z</time>
      </trkpt>
      <trkpt lat="48.83389" lon="2.19061">
        <ele>137</ele>
        <time>2019-12-15T12:42:33Z</time>
      </trkpt>
      <trkpt lat="48.83392" lon="2.19049">
        <ele>137</ele>
        <time>2019-12-15T12:42:40Z</time>
      </trkpt>
      <trkpt lat="48.83386" lon="2.18991">
        <ele>138</ele>
        <time>2019-12-15T12:43:06Z</time>
      </trkpt>
      <trkpt lat="48.83381" lon="2.18977">
        <ele>138</ele>
        <time>2019-12-15T12:43:12Z</time>
      </trkpt>
      <trkpt lat="48.8338" lon="2.18963">
        <ele>138</ele>
        <time>2019-12-15T12:43:18Z</time>
      </trkpt>
      <trkpt lat="48.83377" lon="2.18948">
        <ele>137</ele>
        <time>2019-12-15T12:43:26Z</time>
      </trkpt>
      <trkpt lat="48.83377" lon="2.18933">
        <ele>136</ele>
        <time>2019-12-15T12:43:34Z</time>
      </trkpt>
      <trkpt lat="48.83374" lon="2.18919">
        <ele>135</ele>
        <time>2019-12-15T12:43:41Z</time>
      </trkpt>
      <trkpt lat="48.83375" lon="2.1889">
        <ele>132</ele>
        <time>2019-12-15T12:43:57Z</time>
      </trkpt>
      <trkpt lat="48.83371" lon="2.18876">
        <ele>131</ele>
        <time>2019-12-15T12:44:04Z</time>
      </trkpt>
      <trkpt lat="48.83376" lon="2.18864">
        <ele>130</ele>
        <time>2019-12-15T12:44:24Z</time>
      </trkpt>
      <trkpt lat="48.83371" lon="2.18855">
        <ele>132</ele>
        <time>2019-12-15T12:44:54Z</time>
      </trkpt>
      <trkpt lat="48.83354" lon="2.18882">
        <ele>130</ele>
        <time>2019-12-15T12:45:26Z</time>
      </trkpt>
      <trkpt lat="48.8335" lon="2.18885">
        <ele>130</ele>
        <time>2019-12-15T12:45:31Z</time>
      </trkpt>
      <trkpt lat="48.83341" lon="2.18895">
        <ele>130</ele>
        <time>2019-12-15T12:45:39Z</time>
      </trkpt>
      <trkpt lat="48.83328" lon="2.18916">
        <ele>131</ele>
        <time>2019-12-15T12:45:53Z</time>
      </trkpt>
      <trkpt lat="48.83312" lon="2.18937">
        <ele>132</ele>
        <time>2019-12-15T12:46:09Z</time>
      </trkpt>
      <trkpt lat="48.83308" lon="2.18949">
        <ele>133</ele>
        <time>2019-12-15T12:46:17Z</time>
      </trkpt>
      <trkpt lat="48.83302" lon="2.18959">
        <ele>134</ele>
        <time>2019-12-15T12:46:24Z</time>
      </trkpt>
      <trkpt lat="48.83299" lon="2.18974">
        <ele>137</ele>
        <time>2019-12-15T12:46:36Z</time>
      </trkpt>
      <trkpt lat="48.83297" lon="2.18989">
        <ele>137</ele>
        <time>2019-12-15T12:46:43Z</time>
      </trkpt>
      <trkpt lat="48.83291" lon="2.19">
        <ele>138</ele>
        <time>2019-12-15T12:46:50Z</time>
      </trkpt>
      <trkpt lat="48.83292" lon="2.19014">
        <ele>139</ele>
        <time>2019-12-15T12:46:59Z</time>
      </trkpt>
      <trkpt lat="48.83268" lon="2.19064">
        <ele>141</ele>
        <time>2019-12-15T12:47:24Z</time>
      </trkpt>
      <trkpt lat="48.8325" lon="2.19085">
        <ele>142</ele>
        <time>2019-12-15T12:47:40Z</time>
      </trkpt>
      <trkpt lat="48.83241" lon="2.19092">
        <ele>142</ele>
        <time>2019-12-15T12:47:45Z</time>
      </trkpt>
      <trkpt lat="48.83224" lon="2.191">
        <ele>142</ele>
        <time>2019-12-15T12:47:58Z</time>
      </trkpt>
      <trkpt lat="48.83195" lon="2.19092">
        <ele>141</ele>
        <time>2019-12-15T12:48:17Z</time>
      </trkpt>
      <trkpt lat="48.83187" lon="2.19085">
        <ele>141</ele>
        <time>2019-12-15T12:48:23Z</time>
      </trkpt>
      <trkpt lat="48.83169" lon="2.19065">
        <ele>141</ele>
        <time>2019-12-15T12:48:42Z</time>
      </trkpt>
      <trkpt lat="48.83151" lon="2.19057">
        <ele>142</ele>
        <time>2019-12-15T12:48:55Z</time>
      </trkpt>
      <trkpt lat="48.8314" lon="2.19055">
        <ele>142</ele>
        <time>2019-12-15T12:49:02Z</time>
      </trkpt>
      <trkpt lat="48.83121" lon="2.19062">
        <ele>143</ele>
        <time>2019-12-15T12:49:13Z</time>
      </trkpt>
      <trkpt lat="48.83077" lon="2.19038">
        <ele>147</ele>
        <time>2019-12-15T12:49:49Z</time>
      </trkpt>
      <trkpt lat="48.83058" lon="2.1903">
        <ele>149</ele>
        <time>2019-12-15T12:50:04Z</time>
      </trkpt>
      <trkpt lat="48.83045" lon="2.19032">
        <ele>151</ele>
        <time>2019-12-15T12:50:18Z</time>
      </trkpt>
      <trkpt lat="48.83016" lon="2.19028">
        <ele>152</ele>
        <time>2019-12-15T12:50:40Z</time>
      </trkpt>
      <trkpt lat="48.82998" lon="2.19021">
        <ele>151</ele>
        <time>2019-12-15T12:50:58Z</time>
      </trkpt>
      <trkpt lat="48.82986" lon="2.19023">
        <ele>150</ele>
        <time>2019-12-15T12:52:20Z</time>
      </trkpt>
      <trkpt lat="48.82975" lon="2.19025">
        <ele>150</ele>
        <time>2019-12-15T12:52:31Z</time>
      </trkpt>
      <trkpt lat="48.82957" lon="2.1902">
        <ele>151</ele>
        <time>2019-12-15T12:52:45Z</time>
      </trkpt>
      <trkpt lat="48.82949" lon="2.1901">
        <ele>152</ele>
        <time>2019-12-15T12:52:52Z</time>
      </trkpt>
      <trkpt lat="48.82945" lon="2.18997">
        <ele>152</ele>
        <time>2019-12-15T12:52:59Z</time>
      </trkpt>
      <trkpt lat="48.82944" lon="2.18982">
        <ele>152</ele>
        <time>2019-12-15T12:53:07Z</time>
      </trkpt>
      <trkpt lat="48.82942" lon="2.18974">
        <ele>152</ele>
        <time>2019-12-15T12:53:11Z</time>
      </trkpt>
      <trkpt lat="48.8294" lon="2.18965">
        <ele>153</ele>
        <time>2019-12-15T12:53:28Z</time>
      </trkpt>
      <trkpt lat="48.82941" lon="2.18952">
        <ele>153</ele>
        <time>2019-12-15T12:54:00Z</time>
      </trkpt>
      <trkpt lat="48.82939" lon="2.18946">
        <ele>152</ele>
        <time>2019-12-15T12:54:05Z</time>
      </trkpt>
      <trkpt lat="48.82938" lon="2.18938">
        <ele>152</ele>
        <time>2019-12-15T12:54:10Z</time>
      </trkpt>
      <trkpt lat="48.82937" lon="2.18931">
        <ele>153</ele>
        <time>2019-12-15T12:54:15Z</time>
      </trkpt>
      <trkpt lat="48.82936" lon="2.18897">
        <ele>153</ele>
        <time>2019-12-15T12:54:32Z</time>
      </trkpt>
      <trkpt lat="48.82938" lon="2.1889">
        <ele>153</ele>
        <time>2019-12-15T12:54:36Z</time>
      </trkpt>
      <trkpt lat="48.82939" lon="2.18884">
        <ele>154</ele>
        <time>2019-12-15T12:54:40Z</time>
      </trkpt>
      <trkpt lat="48.8294" lon="2.18875">
        <ele>154</ele>
        <time>2019-12-15T12:54:44Z</time>
      </trkpt>
      <trkpt lat="48.82935" lon="2.18821">
        <ele>156</ele>
        <time>2019-12-15T12:55:11Z</time>
      </trkpt>
      <trkpt lat="48.8293" lon="2.18808">
        <ele>157</ele>
        <time>2019-12-15T12:55:18Z</time>
      </trkpt>
      <trkpt lat="48.82929" lon="2.188">
        <ele>157</ele>
        <time>2019-12-15T12:55:22Z</time>
      </trkpt>
      <trkpt lat="48.82923" lon="2.18762">
        <ele>158</ele>
        <time>2019-12-15T12:55:41Z</time>
      </trkpt>
      <trkpt lat="48.82923" lon="2.18747">
        <ele>158</ele>
        <time>2019-12-15T12:55:49Z</time>
      </trkpt>
      <trkpt lat="48.82919" lon="2.1873">
        <ele>159</ele>
        <time>2019-12-15T12:55:57Z</time>
      </trkpt>
      <trkpt lat="48.82913" lon="2.18717">
        <ele>159</ele>
        <time>2019-12-15T12:56:04Z</time>
      </trkpt>
      <trkpt lat="48.82909" lon="2.187">
        <ele>159</ele>
        <time>2019-12-15T12:56:12Z</time>
      </trkpt>
      <trkpt lat="48.82907" lon="2.18676">
        <ele>159</ele>
        <time>2019-12-15T12:56:23Z</time>
      </trkpt>
      <trkpt lat="48.82907" lon="2.18668">
        <ele>159</ele>
        <time>2019-12-15T12:56:27Z</time>
      </trkpt>
      <trkpt lat="48.8291" lon="2.18653">
        <ele>159</ele>
        <time>2019-12-15T12:56:35Z</time>
      </trkpt>
      <trkpt lat="48.82909" lon="2.18645">
        <ele>159</ele>
        <time>2019-12-15T12:56:39Z</time>
      </trkpt>
      <trkpt lat="48.82912" lon="2.18631">
        <ele>159</ele>
        <time>2019-12-15T12:56:47Z</time>
      </trkpt>
      <trkpt lat="48.8292" lon="2.18605">
        <ele>159</ele>
        <time>2019-12-15T12:57:04Z</time>
      </trkpt>
      <trkpt lat="48.82922" lon="2.18592">
        <ele>159</ele>
        <time>2019-12-15T12:57:11Z</time>
      </trkpt>
      <trkpt lat="48.82924" lon="2.18585">
        <ele>159</ele>
        <time>2019-12-15T12:57:14Z</time>
      </trkpt>
      <trkpt lat="48.82928" lon="2.18562">
        <ele>159</ele>
        <time>2019-12-15T12:57:25Z</time>
      </trkpt>
      <trkpt lat="48.82935" lon="2.18553">
        <ele>160</ele>
        <time>2019-12-15T12:57:32Z</time>
      </trkpt>
      <trkpt lat="48.82949" lon="2.18516">
        <ele>160</ele>
        <time>2019-12-15T12:57:52Z</time>
      </trkpt>
      <trkpt lat="48.8295" lon="2.18508">
        <ele>160</ele>
        <time>2019-12-15T12:57:55Z</time>
      </trkpt>
      <trkpt lat="48.82946" lon="2.18476">
        <ele>159</ele>
        <time>2019-12-15T12:58:10Z</time>
      </trkpt>
      <trkpt lat="48.82941" lon="2.18466">
        <ele>158</ele>
        <time>2019-12-15T12:58:22Z</time>
      </trkpt>
      <trkpt lat="48.82946" lon="2.18459">
        <ele>158</ele>
        <time>2019-12-15T12:58:44Z</time>
      </trkpt>
      <trkpt lat="48.82948" lon="2.18454">
        <ele>157</ele>
        <time>2019-12-15T12:58:47Z</time>
      </trkpt>
      <trkpt lat="48.82959" lon="2.18409">
        <ele>153</ele>
        <time>2019-12-15T12:59:12Z</time>
      </trkpt>
      <trkpt lat="48.82959" lon="2.18396">
        <ele>152</ele>
        <time>2019-12-15T12:59:21Z</time>
      </trkpt>
      <trkpt lat="48.82964" lon="2.18382">
        <ele>150</ele>
        <time>2019-12-15T12:59:28Z</time>
      </trkpt>
      <trkpt lat="48.82966" lon="2.1837">
        <ele>149</ele>
        <time>2019-12-15T12:59:34Z</time>
      </trkpt>
      <trkpt lat="48.82975" lon="2.18345">
        <ele>149</ele>
        <time>2019-12-15T12:59:47Z</time>
      </trkpt>
      <trkpt lat="48.82987" lon="2.18319">
        <ele>147</ele>
        <time>2019-12-15T13:00:02Z</time>
      </trkpt>
      <trkpt lat="48.83005" lon="2.18279">
        <ele>147</ele>
        <time>2019-12-15T13:00:22Z</time>
      </trkpt>
      <trkpt lat="48.8301" lon="2.18252">
        <ele>147</ele>
        <time>2019-12-15T13:00:35Z</time>
      </trkpt>
      <trkpt lat="48.83016" lon="2.18242">
        <ele>146</ele>
        <time>2019-12-15T13:00:42Z</time>
      </trkpt>
      <trkpt lat="48.83022" lon="2.18212">
        <ele>146</ele>
        <time>2019-12-15T13:00:58Z</time>
      </trkpt>
      <trkpt lat="48.83029" lon="2.18201">
        <ele>146</ele>
        <time>2019-12-15T13:01:05Z</time>
      </trkpt>
      <trkpt lat="48.83037" lon="2.18182">
        <ele>147</ele>
        <time>2019-12-15T13:01:15Z</time>
      </trkpt>
      <trkpt lat="48.8304" lon="2.18176">
        <ele>147</ele>
        <time>2019-12-15T13:01:18Z</time>
      </trkpt>
      <trkpt lat="48.83045" lon="2.18171">
        <ele>147</ele>
        <time>2019-12-15T13:01:22Z</time>
      </trkpt>
      <trkpt lat="48.83052" lon="2.18157">
        <ele>148</ele>
        <time>2019-12-15T13:01:31Z</time>
      </trkpt>
      <trkpt lat="48.83059" lon="2.18145">
        <ele>148</ele>
        <time>2019-12-15T13:01:39Z</time>
      </trkpt>
      <trkpt lat="48.83062" lon="2.18139">
        <ele>148</ele>
        <time>2019-12-15T13:01:43Z</time>
      </trkpt>
      <trkpt lat="48.83066" lon="2.18125">
        <ele>148</ele>
        <time>2019-12-15T13:01:52Z</time>
      </trkpt>
      <trkpt lat="48.8308" lon="2.18111">
        <ele>147</ele>
        <time>2019-12-15T13:02:05Z</time>
      </trkpt>
      <trkpt lat="48.83083" lon="2.18106">
        <ele>147</ele>
        <time>2019-12-15T13:02:09Z</time>
      </trkpt>
      <trkpt lat="48.83086" lon="2.181">
        <ele>147</ele>
        <time>2019-12-15T13:02:13Z</time>
      </trkpt>
      <trkpt lat="48.83089" lon="2.18094">
        <ele>147</ele>
        <time>2019-12-15T13:02:17Z</time>
      </trkpt>
      <trkpt lat="48.83094" lon="2.18088">
        <ele>147</ele>
        <time>2019-12-15T13:02:21Z</time>
      </trkpt>
      <trkpt lat="48.83098" lon="2.18087">
        <ele>147</ele>
        <time>2019-12-15T13:02:24Z</time>
      </trkpt>
      <trkpt lat="48.83116" lon="2.18072">
        <ele>147</ele>
        <time>2019-12-15T13:02:38Z</time>
      </trkpt>
      <trkpt lat="48.83131" lon="2.18057">
        <ele>147</ele>
        <time>2019-12-15T13:02:52Z</time>
      </trkpt>
      <trkpt lat="48.83137" lon="2.18049">
        <ele>146</ele>
        <time>2019-12-15T13:02:57Z</time>
      </trkpt>
      <trkpt lat="48.83138" lon="2.18041">
        <ele>146</ele>
        <time>2019-12-15T13:03:01Z</time>
      </trkpt>
      <trkpt lat="48.83141" lon="2.18034">
        <ele>145</ele>
        <time>2019-12-15T13:03:04Z</time>
      </trkpt>
      <trkpt lat="48.83143" lon="2.18027">
        <ele>145</ele>
        <time>2019-12-15T13:03:08Z</time>
      </trkpt>
      <trkpt lat="48.83144" lon="2.1801">
        <ele>144</ele>
        <time>2019-12-15T13:03:16Z</time>
      </trkpt>
      <trkpt lat="48.8314" lon="2.17986">
        <ele>144</ele>
        <time>2019-12-15T13:03:28Z</time>
      </trkpt>
      <trkpt lat="48.83139" lon="2.17977">
        <ele>145</ele>
        <time>2019-12-15T13:03:32Z</time>
      </trkpt>
      <trkpt lat="48.83135" lon="2.17965">
        <ele>145</ele>
        <time>2019-12-15T13:03:38Z</time>
      </trkpt>
      <trkpt lat="48.83133" lon="2.17957">
        <ele>145</ele>
        <time>2019-12-15T13:03:42Z</time>
      </trkpt>
      <trkpt lat="48.83131" lon="2.1795">
        <ele>144</ele>
        <time>2019-12-15T13:03:49Z</time>
      </trkpt>
      <trkpt lat="48.83129" lon="2.17943">
        <ele>144</ele>
        <time>2019-12-15T13:03:53Z</time>
      </trkpt>
      <trkpt lat="48.83123" lon="2.17929">
        <ele>143</ele>
        <time>2019-12-15T13:04:00Z</time>
      </trkpt>
      <trkpt lat="48.83121" lon="2.17914">
        <ele>142</ele>
        <time>2019-12-15T13:04:08Z</time>
      </trkpt>
      <trkpt lat="48.83117" lon="2.17909">
        <ele>142</ele>
        <time>2019-12-15T13:04:12Z</time>
      </trkpt>
      <trkpt lat="48.83113" lon="2.17905">
        <ele>142</ele>
        <time>2019-12-15T13:04:15Z</time>
      </trkpt>
      <trkpt lat="48.83107" lon="2.17893">
        <ele>141</ele>
        <time>2019-12-15T13:04:23Z</time>
      </trkpt>
      <trkpt lat="48.83092" lon="2.17871">
        <ele>140</ele>
        <time>2019-12-15T13:04:40Z</time>
      </trkpt>
      <trkpt lat="48.83083" lon="2.17833">
        <ele>139</ele>
        <time>2019-12-15T13:05:17Z</time>
      </trkpt>
      <trkpt lat="48.83072" lon="2.17821">
        <ele>138</ele>
        <time>2019-12-15T13:05:40Z</time>
      </trkpt>
      <trkpt lat="48.83067" lon="2.1781">
        <ele>138</ele>
        <time>2019-12-15T13:05:48Z</time>
      </trkpt>
      <trkpt lat="48.83063" lon="2.178">
        <ele>137</ele>
        <time>2019-12-15T13:05:55Z</time>
      </trkpt>
      <trkpt lat="48.83062" lon="2.17794">
        <ele>137</ele>
        <time>2019-12-15T13:06:10Z</time>
      </trkpt>
      <trkpt lat="48.83065" lon="2.17787">
        <ele>138</ele>
        <time>2019-12-15T13:06:23Z</time>
      </trkpt>
      <trkpt lat="48.83064" lon="2.17778">
        <ele>137</ele>
        <time>2019-12-15T13:06:27Z</time>
      </trkpt>
      <trkpt lat="48.8306" lon="2.17772">
        <ele>137</ele>
        <time>2019-12-15T13:06:30Z</time>
      </trkpt>
      <trkpt lat="48.8305" lon="2.17763">
        <ele>137</ele>
        <time>2019-12-15T13:06:36Z</time>
      </trkpt>
      <trkpt lat="48.8304" lon="2.17759">
        <ele>137</ele>
        <time>2019-12-15T13:06:42Z</time>
      </trkpt>
      <trkpt lat="48.83037" lon="2.17754">
        <ele>137</ele>
        <time>2019-12-15T13:06:46Z</time>
      </trkpt>
      <trkpt lat="48.83035" lon="2.17748">
        <ele>137</ele>
        <time>2019-12-15T13:06:50Z</time>
      </trkpt>
      <trkpt lat="48.8303" lon="2.1774">
        <ele>137</ele>
        <time>2019-12-15T13:06:56Z</time>
      </trkpt>
      <trkpt lat="48.83026" lon="2.17725">
        <ele>137</ele>
        <time>2019-12-15T13:07:04Z</time>
      </trkpt>
      <trkpt lat="48.83014" lon="2.17657">
        <ele>138</ele>
        <time>2019-12-15T13:07:40Z</time>
      </trkpt>
      <trkpt lat="48.83008" lon="2.17646">
        <ele>138</ele>
        <time>2019-12-15T13:07:46Z</time>
      </trkpt>
      <trkpt lat="48.83005" lon="2.17631">
        <ele>139</ele>
        <time>2019-12-15T13:07:53Z</time>
      </trkpt>
      <trkpt lat="48.83009" lon="2.17617">
        <ele>139</ele>
        <time>2019-12-15T13:07:59Z</time>
      </trkpt>
      <trkpt lat="48.83011" lon="2.17602">
        <ele>139</ele>
        <time>2019-12-15T13:08:06Z</time>
      </trkpt>
      <trkpt lat="48.83011" lon="2.17587">
        <ele>139</ele>
        <time>2019-12-15T13:08:13Z</time>
      </trkpt>
      <trkpt lat="48.83015" lon="2.1753">
        <ele>139</ele>
        <time>2019-12-15T13:08:42Z</time>
      </trkpt>
      <trkpt lat="48.83012" lon="2.17516">
        <ele>139</ele>
        <time>2019-12-15T13:08:49Z</time>
      </trkpt>
      <trkpt lat="48.83013" lon="2.17502">
        <ele>139</ele>
        <time>2019-12-15T13:08:57Z</time>
      </trkpt>
      <trkpt lat="48.8301" lon="2.17489">
        <ele>139</ele>
        <time>2019-12-15T13:09:04Z</time>
      </trkpt>
      <trkpt lat="48.83009" lon="2.17459">
        <ele>140</ele>
        <time>2019-12-15T13:09:21Z</time>
      </trkpt>
      <trkpt lat="48.83" lon="2.17453">
        <ele>141</ele>
        <time>2019-12-15T13:09:36Z</time>
      </trkpt>
      <trkpt lat="48.82991" lon="2.17443">
        <ele>141</ele>
        <time>2019-12-15T13:09:56Z</time>
      </trkpt>
      <trkpt lat="48.82982" lon="2.1744">
        <ele>141</ele>
        <time>2019-12-15T13:10:03Z</time>
      </trkpt>
      <trkpt lat="48.82943" lon="2.17454">
        <ele>146</ele>
        <time>2019-12-15T13:10:38Z</time>
      </trkpt>
      <trkpt lat="48.82895" lon="2.17473">
        <ele>150</ele>
        <time>2019-12-15T13:11:16Z</time>
      </trkpt>
      <trkpt lat="48.82859" lon="2.17487">
        <ele>154</ele>
        <time>2019-12-15T13:11:49Z</time>
      </trkpt>
      <trkpt lat="48.82822" lon="2.17501">
        <ele>157</ele>
        <time>2019-12-15T13:12:19Z</time>
      </trkpt>
      <trkpt lat="48.82795" lon="2.17509">
        <ele>158</ele>
        <time>2019-12-15T13:12:43Z</time>
      </trkpt>
      <trkpt lat="48.82791" lon="2.1751">
        <ele>158</ele>
        <time>2019-12-15T13:12:46Z</time>
      </trkpt>
      <trkpt lat="48.82781" lon="2.1751">
        <ele>159</ele>
        <time>2019-12-15T13:12:54Z</time>
      </trkpt>
      <trkpt lat="48.82777" lon="2.17511">
        <ele>159</ele>
        <time>2019-12-15T13:12:57Z</time>
      </trkpt>
      <trkpt lat="48.82772" lon="2.17514">
        <ele>159</ele>
        <time>2019-12-15T13:13:00Z</time>
      </trkpt>
      <trkpt lat="48.82769" lon="2.17519">
        <ele>160</ele>
        <time>2019-12-15T13:13:05Z</time>
      </trkpt>
      <trkpt lat="48.82762" lon="2.17523">
        <ele>160</ele>
        <time>2019-12-15T13:13:30Z</time>
      </trkpt>
      <trkpt lat="48.82763" lon="2.17512">
        <ele>160</ele>
        <time>2019-12-15T13:13:54Z</time>
      </trkpt>
      <trkpt lat="48.82767" lon="2.1751">
        <ele>160</ele>
        <time>2019-12-15T13:14:36Z</time>
      </trkpt>
      <trkpt lat="48.82753" lon="2.17504">
        <ele>160</ele>
        <time>2019-12-15T13:14:50Z</time>
      </trkpt>
      <trkpt lat="48.82749" lon="2.17501">
        <ele>161</ele>
        <time>2019-12-15T13:14:54Z</time>
      </trkpt>
      <trkpt lat="48.82739" lon="2.17493">
        <ele>161</ele>
        <time>2019-12-15T13:15:02Z</time>
      </trkpt>
      <trkpt lat="48.82718" lon="2.17488">
        <ele>161</ele>
        <time>2019-12-15T13:15:44Z</time>
      </trkpt>
      <trkpt lat="48.82713" lon="2.17485">
        <ele>161</ele>
        <time>2019-12-15T13:15:47Z</time>
      </trkpt>
      <trkpt lat="48.82708" lon="2.17485">
        <ele>162</ele>
        <time>2019-12-15T13:15:50Z</time>
      </trkpt>
      <trkpt lat="48.82703" lon="2.17484">
        <ele>161</ele>
        <time>2019-12-15T13:15:55Z</time>
      </trkpt>
      <trkpt lat="48.82698" lon="2.17482">
        <ele>161</ele>
        <time>2019-12-15T13:15:59Z</time>
      </trkpt>
      <trkpt lat="48.82689" lon="2.17481">
        <ele>160</ele>
        <time>2019-12-15T13:16:33Z</time>
      </trkpt>
      <trkpt lat="48.82675" lon="2.17477">
        <ele>158</ele>
        <time>2019-12-15T13:16:46Z</time>
      </trkpt>
      <trkpt lat="48.8267" lon="2.17479">
        <ele>157</ele>
        <time>2019-12-15T13:16:50Z</time>
      </trkpt>
      <trkpt lat="48.82669" lon="2.17488">
        <ele>156</ele>
        <time>2019-12-15T13:16:59Z</time>
      </trkpt>
      <trkpt lat="48.82659" lon="2.17491">
        <ele>154</ele>
        <time>2019-12-15T13:17:30Z</time>
      </trkpt>
      <trkpt lat="48.82657" lon="2.17505">
        <ele>153</ele>
        <time>2019-12-15T13:17:39Z</time>
      </trkpt>
      <trkpt lat="48.8265" lon="2.17519">
        <ele>151</ele>
        <time>2019-12-15T13:17:51Z</time>
      </trkpt>
      <trkpt lat="48.82646" lon="2.17524">
        <ele>151</ele>
        <time>2019-12-15T13:17:55Z</time>
      </trkpt>
      <trkpt lat="48.82641" lon="2.17541">
        <ele>151</ele>
        <time>2019-12-15T13:18:01Z</time>
      </trkpt>
      <trkpt lat="48.82637" lon="2.17546">
        <ele>150</ele>
        <time>2019-12-15T13:18:04Z</time>
      </trkpt>
      <trkpt lat="48.82619" lon="2.17557">
        <ele>149</ele>
        <time>2019-12-15T13:18:18Z</time>
      </trkpt>
      <trkpt lat="48.82611" lon="2.17564">
        <ele>148</ele>
        <time>2019-12-15T13:18:26Z</time>
      </trkpt>
      <trkpt lat="48.82581" lon="2.17601">
        <ele>147</ele>
        <time>2019-12-15T13:18:57Z</time>
      </trkpt>
      <trkpt lat="48.82554" lon="2.17643">
        <ele>151</ele>
        <time>2019-12-15T13:19:27Z</time>
      </trkpt>
      <trkpt lat="48.82549" lon="2.17656">
        <ele>152</ele>
        <time>2019-12-15T13:19:35Z</time>
      </trkpt>
      <trkpt lat="48.82541" lon="2.17663">
        <ele>154</ele>
        <time>2019-12-15T13:19:44Z</time>
      </trkpt>
      <trkpt lat="48.82533" lon="2.17671">
        <ele>157</ele>
        <time>2019-12-15T13:19:55Z</time>
      </trkpt>
      <trkpt lat="48.82503" lon="2.17708">
        <ele>163</ele>
        <time>2019-12-15T13:20:30Z</time>
      </trkpt>
      <trkpt lat="48.82497" lon="2.17718">
        <ele>163</ele>
        <time>2019-12-15T13:20:38Z</time>
      </trkpt>
      <trkpt lat="48.82481" lon="2.17735">
        <ele>162</ele>
        <time>2019-12-15T13:20:53Z</time>
      </trkpt>
      <trkpt lat="48.82472" lon="2.17742">
        <ele>163</ele>
        <time>2019-12-15T13:21:00Z</time>
      </trkpt>
      <trkpt lat="48.82466" lon="2.17754">
        <ele>163</ele>
        <time>2019-12-15T13:21:06Z</time>
      </trkpt>
      <trkpt lat="48.82457" lon="2.17759">
        <ele>164</ele>
        <time>2019-12-15T13:21:13Z</time>
      </trkpt>
      <trkpt lat="48.82434" lon="2.17785">
        <ele>163</ele>
        <time>2019-12-15T13:21:33Z</time>
      </trkpt>
      <trkpt lat="48.82409" lon="2.1781">
        <ele>163</ele>
        <time>2019-12-15T13:21:56Z</time>
      </trkpt>
      <trkpt lat="48.82392" lon="2.17828">
        <ele>162</ele>
        <time>2019-12-15T13:22:12Z</time>
      </trkpt>
      <trkpt lat="48.82385" lon="2.17838">
        <ele>162</ele>
        <time>2019-12-15T13:22:18Z</time>
      </trkpt>
      <trkpt lat="48.82352" lon="2.17865">
        <ele>162</ele>
        <time>2019-12-15T13:22:48Z</time>
      </trkpt>
      <trkpt lat="48.82328" lon="2.17892">
        <ele>161</ele>
        <time>2019-12-15T13:23:12Z</time>
      </trkpt>
      <trkpt lat="48.82312" lon="2.17907">
        <ele>161</ele>
        <time>2019-12-15T13:23:28Z</time>
      </trkpt>
      <trkpt lat="48.82304" lon="2.17916">
        <ele>160</ele>
        <time>2019-12-15T13:23:42Z</time>
      </trkpt>
      <trkpt lat="48.8229" lon="2.17928">
        <ele>159</ele>
        <time>2019-12-15T13:23:53Z</time>
      </trkpt>
      <trkpt lat="48.82282" lon="2.17936">
        <ele>158</ele>
        <time>2019-12-15T13:23:59Z</time>
      </trkpt>
      <trkpt lat="48.82278" lon="2.1794">
        <ele>157</ele>
        <time>2019-12-15T13:24:03Z</time>
      </trkpt>
      <trkpt lat="48.82274" lon="2.17945">
        <ele>157</ele>
        <time>2019-12-15T13:24:06Z</time>
      </trkpt>
      <trkpt lat="48.82269" lon="2.17946">
        <ele>157</ele>
        <time>2019-12-15T13:24:11Z</time>
      </trkpt>
      <trkpt lat="48.82265" lon="2.17952">
        <ele>157</ele>
        <time>2019-12-15T13:24:16Z</time>
      </trkpt>
      <trkpt lat="48.82264" lon="2.17965">
        <ele>157</ele>
        <time>2019-12-15T13:24:27Z</time>
      </trkpt>
      <trkpt lat="48.82257" lon="2.17976">
        <ele>156</ele>
        <time>2019-12-15T13:24:35Z</time>
      </trkpt>
      <trkpt lat="48.82252" lon="2.17982">
        <ele>155</ele>
        <time>2019-12-15T13:24:41Z</time>
      </trkpt>
      <trkpt lat="48.82247" lon="2.17984">
        <ele>154</ele>
        <time>2019-12-15T13:24:45Z</time>
      </trkpt>
      <trkpt lat="48.8223" lon="2.18016">
        <ele>151</ele>
        <time>2019-12-15T13:25:15Z</time>
      </trkpt>
      <trkpt lat="48.82214" lon="2.18069">
        <ele>144</ele>
        <time>2019-12-15T13:25:51Z</time>
      </trkpt>
      <trkpt lat="48.82212" lon="2.18095">
        <ele>139</ele>
        <time>2019-12-15T13:26:09Z</time>
      </trkpt>
      <trkpt lat="48.82208" lon="2.18107">
        <ele>137</ele>
        <time>2019-12-15T13:26:18Z</time>
      </trkpt>
      <trkpt lat="48.822" lon="2.18166">
        <ele>129</ele>
        <time>2019-12-15T13:26:55Z</time>
      </trkpt>
      <trkpt lat="48.82199" lon="2.18195">
        <ele>126</ele>
        <time>2019-12-15T13:27:11Z</time>
      </trkpt>
    </trkseg>
  </trk>
</gpx>